Time,TemperatureF,DewpointF,PressureIn,WindDirection,WindDirectionDegrees,WindSpeedMPH,WindSpeedGustMPH,Humidity,HourlyPrecipIn,Conditions,Clouds,dailyrainin,SoftwareType,DateUTC
2013-09-12 07:00:00,73.2,72.0,29.89,North,0,0.0,0.0,96,0.00,,---,0.00,VWS V14.01,2013-09-12 11:00:00,
2013-09-12 08:36:00,76.7,73.9,29.91,North,0,0.0,0.0,91,0.00,,---,0.00,VWS V14.01,2013-09-12 12:36:00,
2013-09-12 08:37:00,76.7,73.9,29.91,North,0,0.0,0.0,91,0.00,,---,0.00,VWS V14.01,2013-09-12 12:37:00,
2013-09-12 08:38:00,76.8,73.7,29.91,North,0,0.0,0.0,90,0.00,,---,0.00,VWS V14.01,2013-09-12 12:38:00,
2013-09-12 08:42:00,77.0,73.8,29.91,North,0,0.0,4.0,90,0.00,,---,0.00,VWS V14.01,2013-09-12 12:42:00,
2013-09-12 08:43:00,77.0,73.8,29.91,North,0,0.0,4.0,90,0.00,,---,0.00,VWS V14.01,2013-09-12 12:43:00,
2013-09-12 08:44:00,77.0,73.8,29.91,North,1,0.0,4.0,90,0.00,,---,0.00,VWS V14.01,2013-09-12 12:44:00,
2013-09-12 08:48:00,77.4,73.9,29.91,North,0,0.0,4.0,89,0.00,,---,0.00,VWS V14.01,2013-09-12 12:48:00,
2013-09-12 08:49:00,77.6,74.1,29.91,North,0,0.0,4.0,89,0.00,,---,0.00,VWS V14.01,2013-09-12 12:49:00,
2013-09-12 08:50:00,77.6,74.1,29.91,North,0,2.0,5.0,89,0.00,,---,0.00,VWS V14.01,2013-09-12 12:50:00,
2013-09-12 08:54:00,77.9,74.1,29.91,North,0,0.0,6.0,88,0.00,,---,0.00,VWS V14.01,2013-09-12 12:54:00,
2013-09-12 08:55:00,78.1,74.3,29.91,North,0,0.0,6.0,88,0.00,,---,0.00,VWS V14.01,2013-09-12 12:55:00,
2013-09-12 08:56:00,78.1,74.3,29.91,North,0,0.0,6.0,88,0.00,,---,0.00,VWS V14.01,2013-09-12 12:56:00,
2013-09-12 08:57:00,78.1,74.3,29.91,North,0,0.0,6.0,88,0.00,,---,0.00,VWS V14.01,2013-09-12 12:57:00,
2013-09-12 09:00:00,78.3,74.1,29.91,North,0,0.0,6.0,87,0.00,,---,0.00,VWS V14.01,2013-09-12 13:00:00,
2013-09-12 09:01:00,78.5,74.3,29.91,North,0,0.0,6.0,87,0.00,,---,0.00,VWS V14.01,2013-09-12 13:01:00,
2013-09-12 09:04:00,78.8,74.3,29.92,North,0,0.0,6.0,86,0.00,,---,0.00,VWS V14.01,2013-09-12 13:04:00,
2013-09-12 09:06:00,79.0,74.1,29.92,North,0,0.0,7.0,85,0.00,,---,0.00,VWS V14.01,2013-09-12 13:06:00,
2013-09-12 09:08:00,79.0,74.1,29.92,North,0,0.0,7.0,85,0.00,,---,0.00,VWS V14.01,2013-09-12 13:08:00,
2013-09-12 09:09:00,79.0,74.1,29.92,North,0,0.0,7.0,85,0.00,,---,0.00,VWS V14.01,2013-09-12 13:09:00,
2013-09-12 09:10:00,79.2,74.3,29.92,North,0,0.0,7.0,85,0.00,,---,0.00,VWS V14.01,2013-09-12 13:10:00,
2013-09-12 09:11:00,79.2,74.3,29.92,North,0,4.0,7.0,85,0.00,,---,0.00,VWS V14.01,2013-09-12 13:11:00,
2013-09-12 09:12:00,79.2,74.3,29.92,North,0,2.0,7.0,85,0.00,,---,0.00,VWS V14.01,2013-09-12 13:12:00,
2013-09-12 09:13:00,79.2,74.3,29.92,North,0,0.0,7.0,85,0.00,,---,0.00,VWS V14.01,2013-09-12 13:13:00,
2013-09-12 09:14:00,79.2,74.3,29.92,North,0,0.0,7.0,85,0.00,,---,0.00,VWS V14.01,2013-09-12 13:14:00,
2013-09-12 09:15:00,79.4,74.5,29.92,North,0,0.0,7.0,85,0.00,,---,0.00,VWS V14.01,2013-09-12 13:15:00,
2013-09-12 09:16:00,79.4,74.5,29.92,North,0,0.0,7.0,85,0.00,,---,0.00,VWS V14.01,2013-09-12 13:16:00,
2013-09-12 09:17:00,79.4,74.5,29.92,North,0,0.0,7.0,85,0.00,,---,0.00,VWS V14.01,2013-09-12 13:17:00,
2013-09-12 09:19:00,79.6,74.7,29.92,North,0,0.0,7.0,85,0.00,,---,0.00,VWS V14.01,2013-09-12 13:19:00,
2013-09-12 09:21:00,79.6,74.7,29.92,North,0,0.0,7.0,85,0.00,,---,0.00,VWS V14.01,2013-09-12 13:21:00,
2013-09-12 09:22:00,79.8,74.5,29.92,North,0,0.0,8.0,84,0.00,,---,0.00,VWS V14.01,2013-09-12 13:22:00,
2013-09-12 09:24:00,79.9,74.6,29.92,North,0,0.0,8.0,84,0.00,,---,0.00,VWS V14.01,2013-09-12 13:24:00,
2013-09-12 09:25:00,79.9,74.6,29.92,North,0,0.0,8.0,84,0.00,,---,0.00,VWS V14.01,2013-09-12 13:25:00,
2013-09-12 09:26:00,80.1,74.5,29.92,North,0,0.0,8.0,83,0.00,,---,0.00,VWS V14.01,2013-09-12 13:26:00,
2013-09-12 09:27:00,80.3,74.7,29.92,North,0,0.0,8.0,83,0.00,,---,0.00,VWS V14.01,2013-09-12 13:27:00,
2013-09-12 09:29:00,80.7,74.7,29.92,North,0,0.0,8.0,82,0.00,,---,0.00,VWS V14.01,2013-09-12 13:29:00,
2013-09-12 09:30:00,80.9,74.9,29.92,North,0,0.0,8.0,82,0.00,,---,0.00,VWS V14.01,2013-09-12 13:30:00,
2013-09-12 09:31:00,81.1,74.7,29.92,North,0,0.0,8.0,81,0.00,,---,0.00,VWS V14.01,2013-09-12 13:31:00,
2013-09-12 09:32:00,81.1,74.3,29.92,North,0,0.0,8.0,80,0.00,,---,0.00,VWS V14.01,2013-09-12 13:32:00,
2013-09-12 09:34:00,81.2,74.4,29.91,North,0,0.0,8.0,80,0.00,,---,0.00,VWS V14.01,2013-09-12 13:34:00,
2013-09-12 09:35:00,81.4,74.6,29.91,North,0,0.0,8.0,80,0.00,,---,0.00,VWS V14.01,2013-09-12 13:35:00,
2013-09-12 09:36:00,81.4,74.6,29.91,North,0,0.0,8.0,80,0.00,,---,0.00,VWS V14.01,2013-09-12 13:36:00,
2013-09-12 09:37:00,81.4,74.3,29.91,North,0,0.0,8.0,79,0.00,,---,0.00,VWS V14.01,2013-09-12 13:37:00,
2013-09-12 09:41:00,81.6,74.8,29.91,North,0,0.0,8.0,80,0.00,,---,0.00,VWS V14.01,2013-09-12 13:41:00,
2013-09-12 09:42:00,81.8,75.0,29.91,North,0,0.0,8.0,80,0.00,,---,0.00,VWS V14.01,2013-09-12 13:42:00,
2013-09-12 09:43:00,82.0,74.8,29.91,North,0,0.0,8.0,79,0.00,,---,0.00,VWS V14.01,2013-09-12 13:43:00,
2013-09-12 09:46:00,82.4,75.2,29.91,North,0,0.0,8.0,79,0.00,,---,0.00,VWS V14.01,2013-09-12 13:46:00,
2013-09-12 09:47:00,82.6,75.1,29.91,North,0,0.0,8.0,78,0.00,,---,0.00,VWS V14.01,2013-09-12 13:47:00,
2013-09-12 09:48:00,82.8,75.2,29.92,North,0,0.0,8.0,78,0.00,,---,0.00,VWS V14.01,2013-09-12 13:48:00,
2013-09-12 09:49:00,82.8,75.2,29.92,North,0,0.0,8.0,78,0.00,,---,0.00,VWS V14.01,2013-09-12 13:49:00,
2013-09-12 09:50:00,83.0,75.1,29.92,North,0,0.0,8.0,77,0.00,,---,0.00,VWS V14.01,2013-09-12 13:50:00,
2013-09-12 09:51:00,83.2,75.2,29.92,North,0,0.0,8.0,77,0.00,,---,0.00,VWS V14.01,2013-09-12 13:51:00,
2013-09-12 09:53:00,83.4,75.1,29.92,North,0,0.0,8.0,76,0.00,,---,0.00,VWS V14.01,2013-09-12 13:53:00,
2013-09-12 09:54:00,83.6,75.2,29.92,North,0,0.0,8.0,76,0.00,,---,0.00,VWS V14.01,2013-09-12 13:54:00,
2013-09-12 09:55:00,83.8,75.4,29.92,North,0,0.0,8.0,76,0.00,,---,0.00,VWS V14.01,2013-09-12 13:55:00,
2013-09-12 09:56:00,84.1,75.7,29.92,North,0,0.0,8.0,76,0.00,,---,0.00,VWS V14.01,2013-09-12 13:56:00,
2013-09-12 09:57:00,84.1,75.3,29.92,North,0,0.0,8.0,75,0.00,,---,0.00,VWS V14.01,2013-09-12 13:57:00,
2013-09-12 09:59:00,84.3,75.1,29.92,North,0,0.0,8.0,74,0.00,,---,0.00,VWS V14.01,2013-09-12 13:59:00,
2013-09-12 10:00:00,84.3,75.1,29.92,North,0,0.0,8.0,74,0.00,,---,0.00,VWS V14.01,2013-09-12 14:00:00,
2013-09-12 10:01:00,84.3,75.5,29.92,North,0,0.0,8.0,75,0.00,,---,0.00,VWS V14.01,2013-09-12 14:01:00,
2013-09-12 10:03:00,84.3,75.5,29.92,North,0,0.0,8.0,75,0.00,,---,0.00,VWS V14.01,2013-09-12 14:03:00,
2013-09-12 10:04:00,84.3,75.1,29.92,North,0,0.0,0.0,74,0.00,,---,0.00,VWS V14.01,2013-09-12 14:04:00,
2013-09-12 10:05:00,84.3,75.1,29.92,North,0,0.0,0.0,74,0.00,,---,0.00,VWS V14.01,2013-09-12 14:05:00,
2013-09-12 10:07:00,84.0,75.6,29.92,North,0,0.0,0.0,76,0.00,,---,0.00,VWS V14.01,2013-09-12 14:07:00,
2013-09-12 10:08:00,84.0,75.6,29.92,North,0,0.0,0.0,76,0.00,,---,0.00,VWS V14.01,2013-09-12 14:08:00,
2013-09-12 10:09:00,84.0,75.6,29.92,North,0,0.0,0.0,76,0.00,,---,0.00,VWS V14.01,2013-09-12 14:09:00,
2013-09-12 10:11:00,83.8,75.0,29.92,North,0,5.0,7.0,75,0.00,,---,0.00,VWS V14.01,2013-09-12 14:11:00,
2013-09-12 10:13:00,84.0,75.2,29.92,North,0,0.0,7.0,75,0.00,,---,0.00,VWS V14.01,2013-09-12 14:13:00,
2013-09-12 10:14:00,84.1,74.5,29.92,North,0,0.0,7.0,73,0.00,,---,0.00,VWS V14.01,2013-09-12 14:14:00,
2013-09-12 10:15:00,84.1,74.5,29.92,North,0,0.0,7.0,73,0.00,,---,0.00,VWS V14.01,2013-09-12 14:15:00,
2013-09-12 10:16:00,84.3,74.3,29.92,North,0,0.0,7.0,72,0.00,,---,0.00,VWS V14.01,2013-09-12 14:16:00,
2013-09-12 10:19:00,84.1,74.9,29.92,North,0,0.0,7.0,74,0.00,,---,0.00,VWS V14.01,2013-09-12 14:19:00,
2013-09-12 10:20:00,84.1,74.9,29.92,North,0,0.0,7.0,74,0.00,,---,0.00,VWS V14.01,2013-09-12 14:20:00,
2013-09-12 10:21:00,84.1,74.9,29.92,North,0,0.0,7.0,74,0.00,,---,0.00,VWS V14.01,2013-09-12 14:21:00,
2013-09-12 10:24:00,84.3,74.7,29.92,North,0,0.0,7.0,73,0.00,,---,0.00,VWS V14.01,2013-09-12 14:24:00,
2013-09-12 10:25:00,84.5,75.3,29.92,North,0,5.0,7.0,74,0.00,,---,0.00,VWS V14.01,2013-09-12 14:25:00,
2013-09-12 10:26:00,84.5,74.9,29.92,North,0,0.0,7.0,73,0.00,,---,0.00,VWS V14.01,2013-09-12 14:26:00,
2013-09-12 10:29:00,84.9,74.9,29.92,North,0,0.0,7.0,72,0.00,,---,0.00,VWS V14.01,2013-09-12 14:29:00,
2013-09-12 10:30:00,84.9,74.9,29.92,North,0,0.0,7.0,72,0.00,,---,0.00,VWS V14.01,2013-09-12 14:30:00,
2013-09-12 10:31:00,84.9,74.9,29.92,North,0,0.0,7.0,72,0.00,,---,0.00,VWS V14.01,2013-09-12 14:31:00,
2013-09-12 10:33:00,85.3,74.8,29.92,North,0,0.0,7.0,71,0.00,,---,0.00,VWS V14.01,2013-09-12 14:33:00,
2013-09-12 10:34:00,85.3,74.4,29.92,North,0,0.0,7.0,70,0.00,,---,0.00,VWS V14.01,2013-09-12 14:34:00,
2013-09-12 10:35:00,85.3,74.4,29.92,North,0,0.0,7.0,70,0.00,,---,0.00,VWS V14.01,2013-09-12 14:35:00,
2013-09-12 10:36:00,85.5,75.0,29.92,North,0,0.0,7.0,71,0.00,,---,0.00,VWS V14.01,2013-09-12 14:36:00,
2013-09-12 10:37:00,85.5,75.0,29.92,North,0,0.0,7.0,71,0.00,,---,0.00,VWS V14.01,2013-09-12 14:37:00,
2013-09-12 10:39:00,85.7,75.2,29.92,North,0,0.0,7.0,71,0.00,,---,0.00,VWS V14.01,2013-09-12 14:39:00,
2013-09-12 10:40:00,85.7,74.8,29.92,North,0,3.0,7.0,70,0.00,,---,0.00,VWS V14.01,2013-09-12 14:40:00,
2013-09-12 10:42:00,85.7,74.4,29.92,North,0,0.0,7.0,69,0.00,,---,0.00,VWS V14.01,2013-09-12 14:42:00,
2013-09-12 10:44:00,85.7,74.4,29.92,North,0,0.0,7.0,69,0.00,,---,0.00,VWS V14.01,2013-09-12 14:44:00,
2013-09-12 10:45:00,85.7,74.4,29.92,North,0,0.0,7.0,69,0.00,,---,0.00,VWS V14.01,2013-09-12 14:45:00,
2013-09-12 10:46:00,85.7,74.8,29.92,North,0,3.0,7.0,70,0.00,,---,0.00,VWS V14.01,2013-09-12 14:46:00,
2013-09-12 10:47:00,85.7,74.4,29.92,North,0,0.0,7.0,69,0.00,,---,0.00,VWS V14.01,2013-09-12 14:47:00,
2013-09-12 10:49:00,85.7,74.4,29.91,North,0,2.0,7.0,69,0.00,,---,0.00,VWS V14.01,2013-09-12 14:49:00,
2013-09-12 10:51:00,85.7,73.9,29.91,North,0,0.0,7.0,68,0.00,,---,0.00,VWS V14.01,2013-09-12 14:51:00,
2013-09-12 10:53:00,85.7,74.8,29.91,North,0,0.0,7.0,70,0.00,,---,0.00,VWS V14.01,2013-09-12 14:53:00,
2013-09-12 10:54:00,85.7,74.8,29.91,North,0,0.0,7.0,70,0.00,,---,0.00,VWS V14.01,2013-09-12 14:54:00,
2013-09-12 10:56:00,85.7,75.2,29.91,North,0,3.0,7.0,71,0.00,,---,0.00,VWS V14.01,2013-09-12 14:56:00,
2013-09-12 10:58:00,85.7,74.4,29.91,North,0,0.0,8.0,69,0.00,,---,0.00,VWS V14.01,2013-09-12 14:58:00,
2013-09-12 10:59:00,85.7,74.4,29.91,North,0,0.0,8.0,69,0.00,,---,0.00,VWS V14.01,2013-09-12 14:59:00,
2013-09-12 11:00:00,85.7,74.8,29.91,North,0,0.0,8.0,70,0.00,,---,0.00,VWS V14.01,2013-09-12 15:00:00,
2013-09-12 11:01:00,85.9,75.0,29.91,North,0,0.0,8.0,70,0.00,,---,0.00,VWS V14.01,2013-09-12 15:01:00,
2013-09-12 11:02:00,85.9,75.0,29.91,North,0,0.0,8.0,70,0.00,,---,0.00,VWS V14.01,2013-09-12 15:02:00,
2013-09-12 11:03:00,85.9,74.1,29.91,North,0,0.0,8.0,68,0.00,,---,0.00,VWS V14.01,2013-09-12 15:03:00,
2013-09-12 11:04:00,85.9,74.1,29.91,North,0,0.0,0.0,68,0.00,,---,0.00,VWS V14.01,2013-09-12 15:04:00,
2013-09-12 11:06:00,86.1,74.8,29.91,North,0,0.0,0.0,69,0.00,,---,0.00,VWS V14.01,2013-09-12 15:06:00,
2013-09-12 11:08:00,86.1,74.3,29.91,North,0,0.0,4.0,68,0.00,,---,0.00,VWS V14.01,2013-09-12 15:08:00,
2013-09-12 11:09:00,86.1,74.3,29.91,North,0,0.0,4.0,68,0.00,,---,0.00,VWS V14.01,2013-09-12 15:09:00,
2013-09-12 11:10:00,86.1,74.8,29.91,North,0,0.0,4.0,69,0.00,,---,0.00,VWS V14.01,2013-09-12 15:10:00,
2013-09-12 11:12:00,85.9,75.0,29.91,North,0,0.0,4.0,70,0.00,,---,0.00,VWS V14.01,2013-09-12 15:12:00,
2013-09-12 11:14:00,85.9,74.6,29.91,North,0,0.0,4.0,69,0.00,,---,0.00,VWS V14.01,2013-09-12 15:14:00,
2013-09-12 11:16:00,85.9,74.6,29.91,North,0,0.0,4.0,69,0.00,,---,0.00,VWS V14.01,2013-09-12 15:16:00,
2013-09-12 11:18:00,86.1,74.8,29.91,North,0,0.0,4.0,69,0.00,,---,0.00,VWS V14.01,2013-09-12 15:18:00,
2013-09-12 11:19:00,86.1,74.8,29.91,North,0,0.0,4.0,69,0.00,,---,0.00,VWS V14.01,2013-09-12 15:19:00,
2013-09-12 11:20:00,86.1,74.3,29.91,North,0,0.0,4.0,68,0.00,,---,0.00,VWS V14.01,2013-09-12 15:20:00,
2013-09-12 11:21:00,86.1,73.9,29.91,North,0,0.0,4.0,67,0.00,,---,0.00,VWS V14.01,2013-09-12 15:21:00,
2013-09-12 11:23:00,86.3,73.6,29.91,North,0,4.0,5.0,66,0.00,,---,0.00,VWS V14.01,2013-09-12 15:23:00,
2013-09-12 11:24:00,86.5,73.3,29.91,North,0,0.0,5.0,65,0.00,,---,0.00,VWS V14.01,2013-09-12 15:24:00,
2013-09-12 11:25:00,86.5,73.8,29.91,North,0,0.0,5.0,66,0.00,,---,0.00,VWS V14.01,2013-09-12 15:25:00,
2013-09-12 11:26:00,86.7,74.0,29.91,North,0,0.0,5.0,66,0.00,,---,0.00,VWS V14.01,2013-09-12 15:26:00,
2013-09-12 11:27:00,86.7,73.5,29.91,North,0,0.0,5.0,65,0.00,,---,0.00,VWS V14.01,2013-09-12 15:27:00,
2013-09-12 11:28:00,86.7,74.4,29.91,North,0,0.0,5.0,67,0.00,,---,0.00,VWS V14.01,2013-09-12 15:28:00,
2013-09-12 11:30:00,87.0,74.7,29.91,North,0,0.0,5.0,67,0.00,,---,0.00,VWS V14.01,2013-09-12 15:30:00,
2013-09-12 11:31:00,87.0,74.7,29.91,North,0,0.0,5.0,67,0.00,,---,0.00,VWS V14.01,2013-09-12 15:31:00,
2013-09-12 11:32:00,87.2,74.5,29.91,North,0,0.0,5.0,66,0.00,,---,0.00,VWS V14.01,2013-09-12 15:32:00,
2013-09-12 11:34:00,87.4,74.7,29.91,North,0,0.0,6.0,66,0.00,,---,0.00,VWS V14.01,2013-09-12 15:34:00,
2013-09-12 11:36:00,87.2,74.5,29.91,North,0,0.0,6.0,66,0.00,,---,0.00,VWS V14.01,2013-09-12 15:36:00,
2013-09-12 11:37:00,87.2,74.9,29.91,North,0,0.0,6.0,67,0.00,,---,0.00,VWS V14.01,2013-09-12 15:37:00,
2013-09-12 11:38:00,87.2,74.9,29.91,North,0,0.0,6.0,67,0.00,,---,0.00,VWS V14.01,2013-09-12 15:38:00,
2013-09-12 11:40:00,86.7,74.4,29.91,North,0,0.0,6.0,67,0.00,,---,0.00,VWS V14.01,2013-09-12 15:40:00,
2013-09-12 11:42:00,86.5,74.7,29.91,North,0,0.0,6.0,68,0.00,,---,0.00,VWS V14.01,2013-09-12 15:42:00,
2013-09-12 11:43:00,86.3,74.9,29.91,North,0,0.0,6.0,69,0.00,,---,0.00,VWS V14.01,2013-09-12 15:43:00,
2013-09-12 11:45:00,86.3,74.1,29.91,North,0,0.0,6.0,67,0.00,,---,0.00,VWS V14.01,2013-09-12 15:45:00,
2013-09-12 11:46:00,86.3,74.1,29.91,North,0,0.0,6.0,67,0.00,,---,0.00,VWS V14.01,2013-09-12 15:46:00,
2013-09-12 11:47:00,86.5,73.8,29.91,North,0,0.0,6.0,66,0.00,,---,0.00,VWS V14.01,2013-09-12 15:47:00,
2013-09-12 11:48:00,86.5,73.8,29.91,North,0,0.0,6.0,66,0.00,,---,0.00,VWS V14.01,2013-09-12 15:48:00,
2013-09-12 11:49:00,86.7,74.0,29.91,North,0,5.0,6.0,66,0.00,,---,0.00,VWS V14.01,2013-09-12 15:49:00,
2013-09-12 11:51:00,87.0,74.3,29.91,North,0,0.0,8.0,66,0.00,,---,0.00,VWS V14.01,2013-09-12 15:51:00,
2013-09-12 11:53:00,87.2,74.5,29.91,North,0,0.0,8.0,66,0.00,,---,0.00,VWS V14.01,2013-09-12 15:53:00,
2013-09-12 11:54:00,87.2,74.5,29.91,North,0,6.0,8.0,66,0.00,,---,0.00,VWS V14.01,2013-09-12 15:54:00,
2013-09-12 11:55:00,87.0,74.3,29.91,North,0,0.0,8.0,66,0.00,,---,0.00,VWS V14.01,2013-09-12 15:55:00,
2013-09-12 11:56:00,87.0,74.3,29.91,North,0,0.0,8.0,66,0.00,,---,0.00,VWS V14.01,2013-09-12 15:56:00,
2013-09-12 11:58:00,87.0,74.7,29.91,North,0,0.0,8.0,67,0.00,,---,0.00,VWS V14.01,2013-09-12 15:58:00,
2013-09-12 12:00:00,86.7,74.0,29.91,North,0,0.0,8.0,66,0.00,,---,0.00,VWS V14.01,2013-09-12 16:00:00,
2013-09-12 12:02:00,87.0,74.3,29.91,North,0,0.0,8.0,66,0.00,,---,0.00,VWS V14.01,2013-09-12 16:02:00,
2013-09-12 12:03:00,87.0,74.3,29.91,North,0,0.0,8.0,66,0.00,,---,0.00,VWS V14.01,2013-09-12 16:03:00,
2013-09-12 12:04:00,87.0,74.7,29.91,North,0,0.0,8.0,67,0.00,,---,0.00,VWS V14.01,2013-09-12 16:04:00,
2013-09-12 12:06:00,87.0,74.3,29.91,North,0,0.0,0.0,66,0.00,,---,0.00,VWS V14.01,2013-09-12 16:06:00,
2013-09-12 12:07:00,87.0,74.3,29.91,North,0,0.0,0.0,66,0.00,,---,0.00,VWS V14.01,2013-09-12 16:07:00,
2013-09-12 12:08:00,87.0,74.7,29.91,North,0,0.0,0.0,67,0.00,,---,0.00,VWS V14.01,2013-09-12 16:08:00,
2013-09-12 12:09:00,87.0,74.7,29.91,North,0,0.0,0.0,67,0.00,,---,0.00,VWS V14.01,2013-09-12 16:09:00,
2013-09-12 12:10:00,87.0,74.7,29.91,North,0,0.0,0.0,67,0.00,,---,0.00,VWS V14.01,2013-09-12 16:10:00,
2013-09-12 12:12:00,86.7,74.0,29.91,North,0,0.0,0.0,66,0.00,,---,0.00,VWS V14.01,2013-09-12 16:12:00,
2013-09-12 12:13:00,87.0,74.3,29.91,North,0,0.0,0.0,66,0.00,,---,0.00,VWS V14.01,2013-09-12 16:13:00,
2013-09-12 12:15:00,87.0,74.7,29.91,North,0,0.0,0.0,67,0.00,,---,0.00,VWS V14.01,2013-09-12 16:15:00,
2013-09-12 12:17:00,87.0,74.3,29.91,North,0,0.0,0.0,66,0.00,,---,0.00,VWS V14.01,2013-09-12 16:17:00,
2013-09-12 12:18:00,87.2,74.5,29.91,North,0,0.0,0.0,66,0.00,,---,0.00,VWS V14.01,2013-09-12 16:18:00,
2013-09-12 12:20:00,87.4,74.2,29.91,North,0,0.0,0.0,65,0.00,,---,0.00,VWS V14.01,2013-09-12 16:20:00,
2013-09-12 12:22:00,87.4,74.2,29.91,North,0,0.0,0.0,65,0.00,,---,0.00,VWS V14.01,2013-09-12 16:22:00,
2013-09-12 12:23:00,87.4,74.2,29.91,North,0,0.0,0.0,65,0.00,,---,0.00,VWS V14.01,2013-09-12 16:23:00,
2013-09-12 12:24:00,87.4,74.2,29.91,North,0,1.0,2.0,65,0.00,,---,0.00,VWS V14.01,2013-09-12 16:24:00,
2013-09-12 12:25:00,87.4,74.2,29.91,North,0,0.0,2.0,65,0.00,,---,0.00,VWS V14.01,2013-09-12 16:25:00,
2013-09-12 12:27:00,87.2,74.0,29.91,North,0,0.0,2.0,65,0.00,,---,0.00,VWS V14.01,2013-09-12 16:27:00,
2013-09-12 12:28:00,87.2,74.5,29.91,North,0,0.0,2.0,66,0.00,,---,0.00,VWS V14.01,2013-09-12 16:28:00,
2013-09-12 12:29:00,87.0,74.3,29.91,North,0,0.0,2.0,66,0.00,,---,0.00,VWS V14.01,2013-09-12 16:29:00,
2013-09-12 12:32:00,86.7,74.0,29.91,North,0,0.0,2.0,66,0.00,,---,0.00,VWS V14.01,2013-09-12 16:32:00,
2013-09-12 12:33:00,86.7,73.5,29.91,North,0,0.0,2.0,65,0.00,,---,0.00,VWS V14.01,2013-09-12 16:33:00,
2013-09-12 12:34:00,86.5,73.8,29.90,North,0,0.0,2.0,66,0.00,,---,0.00,VWS V14.01,2013-09-12 16:34:00,
2013-09-12 12:36:00,86.3,74.1,29.90,North,0,0.0,6.0,67,0.00,,---,0.00,VWS V14.01,2013-09-12 16:36:00,
2013-09-12 12:37:00,86.3,74.1,29.90,North,0,0.0,6.0,67,0.00,,---,0.00,VWS V14.01,2013-09-12 16:37:00,
2013-09-12 12:38:00,86.3,74.1,29.90,North,0,0.0,6.0,67,0.00,,---,0.00,VWS V14.01,2013-09-12 16:38:00,
2013-09-12 12:39:00,86.5,74.2,29.90,North,0,0.0,6.0,67,0.00,,---,0.00,VWS V14.01,2013-09-12 16:39:00,
2013-09-12 12:41:00,86.7,74.4,29.90,North,0,0.0,6.0,67,0.00,,---,0.00,VWS V14.01,2013-09-12 16:41:00,
2013-09-12 12:42:00,86.7,74.0,29.90,North,0,5.0,6.0,66,0.00,,---,0.00,VWS V14.01,2013-09-12 16:42:00,
2013-09-12 12:43:00,86.7,74.0,29.90,North,0,0.0,6.0,66,0.00,,---,0.00,VWS V14.01,2013-09-12 16:43:00,
2013-09-12 12:44:00,86.7,74.4,29.90,North,0,0.0,6.0,67,0.00,,---,0.00,VWS V14.01,2013-09-12 16:44:00,
2013-09-12 12:45:00,86.7,74.0,29.90,North,0,0.0,6.0,66,0.00,,---,0.00,VWS V14.01,2013-09-12 16:45:00,
2013-09-12 12:47:00,86.5,74.2,29.90,North,0,0.0,6.0,67,0.00,,---,0.00,VWS V14.01,2013-09-12 16:47:00,
2013-09-12 12:48:00,86.5,74.2,29.89,North,0,0.0,6.0,67,0.00,,---,0.00,VWS V14.01,2013-09-12 16:48:00,
2013-09-12 12:51:00,86.1,73.9,29.89,North,0,0.0,6.0,67,0.00,,---,0.00,VWS V14.01,2013-09-12 16:51:00,
2013-09-12 12:52:00,85.9,73.7,29.89,North,0,0.0,6.0,67,0.00,,---,0.00,VWS V14.01,2013-09-12 16:52:00,
2013-09-12 12:54:00,85.7,73.9,29.89,North,0,0.0,6.0,68,0.00,,---,0.00,VWS V14.01,2013-09-12 16:54:00,
2013-09-12 12:56:00,85.5,73.7,29.89,North,0,0.0,6.0,68,0.00,,---,0.00,VWS V14.01,2013-09-12 16:56:00,
2013-09-12 12:57:00,85.5,73.7,29.89,North,0,0.0,6.0,68,0.00,,---,0.00,VWS V14.01,2013-09-12 16:57:00,
2013-09-12 12:58:00,85.7,74.4,29.89,North,0,0.0,6.0,69,0.00,,---,0.00,VWS V14.01,2013-09-12 16:58:00,
2013-09-12 12:59:00,85.9,74.1,29.89,North,0,7.0,7.0,68,0.00,,---,0.00,VWS V14.01,2013-09-12 16:59:00,
2013-09-12 13:02:00,86.5,73.8,29.89,North,0,0.0,7.0,66,0.00,,---,0.00,VWS V14.01,2013-09-12 17:02:00,
2013-09-12 13:03:00,86.5,73.8,29.89,North,0,4.0,7.0,66,0.00,,---,0.00,VWS V14.01,2013-09-12 17:03:00,
2013-09-12 13:04:00,86.5,73.8,29.88,North,0,0.0,7.0,66,0.00,,---,0.00,VWS V14.01,2013-09-12 17:04:00,
2013-09-12 13:08:00,86.3,73.6,29.88,North,0,0.0,0.0,66,0.00,,---,0.00,VWS V14.01,2013-09-12 17:08:00,
2013-09-12 13:09:00,86.5,74.2,29.88,North,0,0.0,0.0,67,0.00,,---,0.00,VWS V14.01,2013-09-12 17:09:00,
2013-09-12 13:10:00,86.5,73.8,29.88,North,0,4.0,4.0,66,0.00,,---,0.00,VWS V14.01,2013-09-12 17:10:00,
2013-09-12 13:11:00,86.5,73.8,29.88,North,0,0.0,4.0,66,0.00,,---,0.00,VWS V14.01,2013-09-12 17:11:00,
2013-09-12 13:13:00,87.0,73.8,29.88,North,0,0.0,5.0,65,0.00,,---,0.00,VWS V14.01,2013-09-12 17:13:00,
2013-09-12 13:14:00,87.0,73.4,29.88,North,0,0.0,5.0,64,0.00,,---,0.00,VWS V14.01,2013-09-12 17:14:00,
2013-09-12 13:15:00,87.0,73.4,29.88,North,0,0.0,5.0,64,0.00,,---,0.00,VWS V14.01,2013-09-12 17:15:00,
2013-09-12 13:16:00,87.0,73.4,29.88,North,0,1.0,6.0,64,0.00,,---,0.00,VWS V14.01,2013-09-12 17:16:00,
2013-09-12 13:17:00,86.7,73.1,29.88,North,0,0.0,6.0,64,0.00,,---,0.00,VWS V14.01,2013-09-12 17:17:00,
2013-09-12 13:19:00,86.5,73.8,29.88,North,1,0.0,6.0,66,0.00,,---,0.00,VWS V14.01,2013-09-12 17:19:00,
2013-09-12 13:20:00,86.5,73.8,29.88,North,1,0.0,6.0,66,0.00,,---,0.00,VWS V14.01,2013-09-12 17:20:00,
2013-09-12 13:21:00,86.5,73.8,29.88,North,1,3.0,6.0,66,0.00,,---,0.00,VWS V14.01,2013-09-12 17:21:00,
2013-09-12 13:22:00,86.5,73.8,29.88,North,1,0.0,6.0,66,0.00,,---,0.00,VWS V14.01,2013-09-12 17:22:00,
2013-09-12 13:24:00,86.1,73.9,29.88,North,1,0.0,6.0,67,0.00,,---,0.00,VWS V14.01,2013-09-12 17:24:00,
2013-09-12 13:26:00,85.9,73.7,29.88,North,1,0.0,6.0,67,0.00,,---,0.00,VWS V14.01,2013-09-12 17:26:00,
2013-09-12 13:27:00,85.9,74.1,29.88,North,1,0.0,6.0,68,0.00,,---,0.00,VWS V14.01,2013-09-12 17:27:00,
2013-09-12 13:31:00,85.5,74.2,29.88,North,1,0.0,6.0,69,0.00,,---,0.00,VWS V14.01,2013-09-12 17:31:00,
2013-09-12 13:32:00,85.5,73.7,29.88,North,1,0.0,6.0,68,0.00,,---,0.00,VWS V14.01,2013-09-12 17:32:00,
2013-09-12 13:33:00,85.5,73.7,29.88,North,1,0.0,6.0,68,0.00,,---,0.00,VWS V14.01,2013-09-12 17:33:00,
2013-09-12 13:36:00,85.5,74.2,29.88,North,1,0.0,6.0,69,0.00,,---,0.00,VWS V14.01,2013-09-12 17:36:00,
2013-09-12 13:37:00,85.5,74.2,29.88,North,1,0.0,6.0,69,0.00,,---,0.00,VWS V14.01,2013-09-12 17:37:00,
2013-09-12 13:38:00,85.7,74.4,29.88,North,1,0.0,6.0,69,0.00,,---,0.00,VWS V14.01,2013-09-12 17:38:00,
2013-09-12 13:39:00,85.7,74.4,29.88,North,1,0.0,6.0,69,0.00,,---,0.00,VWS V14.01,2013-09-12 17:39:00,
2013-09-12 13:40:00,85.7,74.4,29.88,North,1,0.0,6.0,69,0.00,,---,0.00,VWS V14.01,2013-09-12 17:40:00,
2013-09-12 13:42:00,86.1,74.8,29.88,North,1,0.0,6.0,69,0.00,,---,0.00,VWS V14.01,2013-09-12 17:42:00,
2013-09-12 13:43:00,86.1,74.3,29.88,North,1,0.0,6.0,68,0.00,,---,0.00,VWS V14.01,2013-09-12 17:43:00,
2013-09-12 13:44:00,86.3,74.9,29.88,North,1,0.0,6.0,69,0.00,,---,0.00,VWS V14.01,2013-09-12 17:44:00,
2013-09-12 13:45:00,86.5,75.1,29.88,North,1,0.0,6.0,69,0.00,,---,0.00,VWS V14.01,2013-09-12 17:45:00,
2013-09-12 13:46:00,86.5,74.2,29.88,North,1,0.0,6.0,67,0.00,,---,0.00,VWS V14.01,2013-09-12 17:46:00,
2013-09-12 13:47:00,86.5,74.7,29.88,North,1,0.0,6.0,68,0.00,,---,0.00,VWS V14.01,2013-09-12 17:47:00,
2013-09-12 13:50:00,86.5,74.7,29.88,North,1,0.0,6.0,68,0.00,,---,0.00,VWS V14.01,2013-09-12 17:50:00,
2013-09-12 13:51:00,86.5,74.2,29.88,North,1,0.0,6.0,67,0.00,,---,0.00,VWS V14.01,2013-09-12 17:51:00,
2013-09-12 13:52:00,86.5,74.2,29.88,North,1,0.0,6.0,67,0.00,,---,0.00,VWS V14.01,2013-09-12 17:52:00,
2013-09-12 13:53:00,86.5,74.7,29.88,North,1,0.0,6.0,68,0.00,,---,0.00,VWS V14.01,2013-09-12 17:53:00,
2013-09-12 13:56:00,86.5,75.1,29.88,North,1,0.0,6.0,69,0.00,,---,0.00,VWS V14.01,2013-09-12 17:56:00,
2013-09-12 13:58:00,86.3,74.9,29.88,North,1,0.0,6.0,69,0.00,,---,0.00,VWS V14.01,2013-09-12 17:58:00,
2013-09-12 13:59:00,86.3,74.9,29.88,North,1,0.0,6.0,69,0.00,,---,0.00,VWS V14.01,2013-09-12 17:59:00,
2013-09-12 14:00:00,86.3,74.9,29.88,North,1,0.0,6.0,69,0.00,,---,0.00,VWS V14.01,2013-09-12 18:00:00,
2013-09-12 14:01:00,86.3,74.9,29.88,North,1,0.0,6.0,69,0.00,,---,0.00,VWS V14.01,2013-09-12 18:01:00,
2013-09-12 14:03:00,86.5,75.1,29.87,North,1,0.0,6.0,69,0.00,,---,0.00,VWS V14.01,2013-09-12 18:03:00,
2013-09-12 14:04:00,86.5,75.1,29.87,North,1,0.0,6.0,69,0.00,,---,0.00,VWS V14.01,2013-09-12 18:04:00,
2013-09-12 14:05:00,86.5,74.7,29.87,North,1,0.0,0.0,68,0.00,,---,0.00,VWS V14.01,2013-09-12 18:05:00,
2013-09-12 14:08:00,86.5,76.0,29.87,North,0,1.0,6.0,71,0.00,,---,0.00,VWS V14.01,2013-09-12 18:08:00,
2013-09-12 14:09:00,86.5,76.0,29.87,North,0,0.0,6.0,71,0.00,,---,0.00,VWS V14.01,2013-09-12 18:09:00,
2013-09-12 14:11:00,86.3,75.4,29.87,North,0,0.0,7.0,70,0.00,,---,0.00,VWS V14.01,2013-09-12 18:11:00,
2013-09-12 14:12:00,86.1,76.0,29.87,North,0,0.0,7.0,72,0.00,,---,0.00,VWS V14.01,2013-09-12 18:12:00,
2013-09-12 14:13:00,86.1,76.0,29.87,North,0,1.0,7.0,72,0.00,,---,0.00,VWS V14.01,2013-09-12 18:13:00,
2013-09-12 14:14:00,85.7,75.6,29.87,North,0,2.0,7.0,72,0.00,,---,0.00,VWS V14.01,2013-09-12 18:14:00,
2013-09-12 14:18:00,85.1,75.5,29.87,North,0,0.0,7.0,73,0.00,,---,0.00,VWS V14.01,2013-09-12 18:18:00,
2013-09-12 14:19:00,84.7,75.5,29.87,North,0,0.0,7.0,74,0.00,,---,0.00,VWS V14.01,2013-09-12 18:19:00,
2013-09-12 14:20:00,84.7,75.5,29.87,North,0,0.0,7.0,74,0.00,,---,0.00,VWS V14.01,2013-09-12 18:20:00,
2013-09-12 14:23:00,84.3,75.9,29.87,North,0,0.0,7.0,76,0.00,,---,0.00,VWS V14.01,2013-09-12 18:23:00,
2013-09-12 14:25:00,84.1,76.1,29.87,North,0,0.0,7.0,77,0.00,,---,0.00,VWS V14.01,2013-09-12 18:25:00,
2013-09-12 14:26:00,84.1,76.1,29.87,North,0,0.0,7.0,77,0.00,,---,0.00,VWS V14.01,2013-09-12 18:26:00,
2013-09-12 14:27:00,84.0,76.0,29.87,North,0,0.0,7.0,77,0.00,,---,0.00,VWS V14.01,2013-09-12 18:27:00,
2013-09-12 14:29:00,83.8,76.2,29.87,North,0,0.0,7.0,78,0.00,,---,0.00,VWS V14.01,2013-09-12 18:29:00,
2013-09-12 14:30:00,83.8,76.2,29.87,North,0,0.0,7.0,78,0.00,,---,0.00,VWS V14.01,2013-09-12 18:30:00,
2013-09-12 14:31:00,83.6,76.0,29.87,North,0,0.0,7.0,78,0.00,,---,0.00,VWS V14.01,2013-09-12 18:31:00,
2013-09-12 14:32:00,83.4,76.2,29.87,North,0,0.0,7.0,79,0.00,,---,0.00,VWS V14.01,2013-09-12 18:32:00,
2013-09-12 14:33:00,83.4,76.6,29.87,North,0,0.0,7.0,80,0.00,,---,0.00,VWS V14.01,2013-09-12 18:33:00,
2013-09-12 14:35:00,83.4,77.0,29.86,North,0,0.0,7.0,81,0.00,,---,0.00,VWS V14.01,2013-09-12 18:35:00,
2013-09-12 14:36:00,83.2,77.1,29.86,North,0,0.0,7.0,82,0.00,,---,0.00,VWS V14.01,2013-09-12 18:36:00,
2013-09-12 14:40:00,83.0,76.9,29.86,North,0,0.0,7.0,82,0.00,,---,0.00,VWS V14.01,2013-09-12 18:40:00,
2013-09-12 14:41:00,82.8,76.8,29.86,North,0,0.0,7.0,82,0.00,,---,0.00,VWS V14.01,2013-09-12 18:41:00,
2013-09-12 14:44:00,82.4,76.4,29.86,North,0,0.0,7.0,82,0.00,,---,0.00,VWS V14.01,2013-09-12 18:44:00,
2013-09-12 14:46:00,82.2,76.5,29.86,North,0,0.0,7.0,83,0.00,,---,0.00,VWS V14.01,2013-09-12 18:46:00,
2013-09-12 14:47:00,82.2,76.5,29.86,North,0,3.0,7.0,83,0.00,,---,0.00,VWS V14.01,2013-09-12 18:47:00,
2013-09-12 14:49:00,82.0,76.3,29.86,North,0,6.0,7.0,83,0.00,,---,0.00,VWS V14.01,2013-09-12 18:49:00,
2013-09-12 14:50:00,82.0,76.3,29.86,North,0,0.0,7.0,83,0.00,,---,0.00,VWS V14.01,2013-09-12 18:50:00,
2013-09-12 14:51:00,82.0,76.7,29.86,North,0,0.0,7.0,84,0.00,,---,0.00,VWS V14.01,2013-09-12 18:51:00,
2013-09-12 14:52:00,82.0,76.7,29.86,North,0,0.0,7.0,84,0.00,,---,0.00,VWS V14.01,2013-09-12 18:52:00,
2013-09-12 14:53:00,82.0,77.1,29.86,North,0,0.0,7.0,85,0.00,,---,0.00,VWS V14.01,2013-09-12 18:53:00,
2013-09-12 14:55:00,82.0,77.1,29.86,North,0,0.0,7.0,85,0.00,,---,0.00,VWS V14.01,2013-09-12 18:55:00,
2013-09-12 14:56:00,81.8,76.5,29.86,North,0,0.0,7.0,84,0.00,,---,0.00,VWS V14.01,2013-09-12 18:56:00,
2013-09-12 14:57:00,81.8,76.5,29.86,North,0,0.0,7.0,84,0.01,,---,0.01,VWS V14.01,2013-09-12 18:57:00,
2013-09-12 14:58:00,81.8,76.5,29.86,North,0,0.0,7.0,84,0.01,,---,0.01,VWS V14.01,2013-09-12 18:58:00,
2013-09-12 14:59:00,81.8,76.5,29.86,North,0,0.0,7.0,84,0.01,,---,0.01,VWS V14.01,2013-09-12 18:59:00,
2013-09-12 15:03:00,82.0,77.1,29.86,North,0,0.0,7.0,85,0.02,,---,0.02,VWS V14.01,2013-09-12 19:03:00,
2013-09-12 15:04:00,81.8,76.8,29.85,North,0,0.0,7.0,85,0.02,,---,0.02,VWS V14.01,2013-09-12 19:04:00,
2013-09-12 15:05:00,82.0,77.1,29.85,North,0,0.0,0.0,85,0.02,,---,0.02,VWS V14.01,2013-09-12 19:05:00,
2013-09-12 15:08:00,82.0,77.1,29.85,North,0,0.0,0.0,85,0.02,,---,0.02,VWS V14.01,2013-09-12 19:08:00,
2013-09-12 15:10:00,81.8,76.8,29.85,North,0,0.0,0.0,85,0.02,,---,0.02,VWS V14.01,2013-09-12 19:10:00,
2013-09-12 15:12:00,81.8,77.2,29.85,North,0,0.0,0.0,86,0.02,,---,0.02,VWS V14.01,2013-09-12 19:12:00,
2013-09-12 15:13:00,81.8,76.8,29.85,North,0,0.0,0.0,85,0.02,,---,0.02,VWS V14.01,2013-09-12 19:13:00,
2013-09-12 15:14:00,81.8,77.2,29.85,North,0,0.0,0.0,86,0.02,,---,0.02,VWS V14.01,2013-09-12 19:14:00,
2013-09-12 15:15:00,81.8,77.2,29.85,North,0,0.0,0.0,86,0.02,,---,0.02,VWS V14.01,2013-09-12 19:15:00,
2013-09-12 15:17:00,81.8,77.2,29.85,North,0,0.0,0.0,86,0.02,,---,0.02,VWS V14.01,2013-09-12 19:17:00,
2013-09-12 15:19:00,81.8,77.2,29.85,North,0,0.0,0.0,86,0.02,,---,0.02,VWS V14.01,2013-09-12 19:19:00,
2013-09-12 15:20:00,81.6,77.0,29.85,North,0,0.0,4.0,86,0.02,,---,0.02,VWS V14.01,2013-09-12 19:20:00,
2013-09-12 15:22:00,81.6,77.0,29.85,North,0,0.0,4.0,86,0.02,,---,0.02,VWS V14.01,2013-09-12 19:22:00,
2013-09-12 15:23:00,81.4,77.2,29.85,North,0,1.0,4.0,87,0.02,,---,0.02,VWS V14.01,2013-09-12 19:23:00,
2013-09-12 15:25:00,81.2,76.3,29.85,North,0,0.0,6.0,85,0.02,,---,0.02,VWS V14.01,2013-09-12 19:25:00,
2013-09-12 15:26:00,81.2,76.3,29.85,North,0,0.0,8.0,85,0.02,,---,0.02,VWS V14.01,2013-09-12 19:26:00,
2013-09-12 15:30:00,80.9,76.3,29.85,North,0,0.0,8.0,86,0.02,,---,0.02,VWS V14.01,2013-09-12 19:30:00,
2013-09-12 15:31:00,80.9,76.3,29.85,North,0,0.0,8.0,86,0.02,,---,0.02,VWS V14.01,2013-09-12 19:31:00,
2013-09-12 15:33:00,80.7,75.8,29.85,North,0,0.0,8.0,85,0.02,,---,0.02,VWS V14.01,2013-09-12 19:33:00,
2013-09-12 15:36:00,80.5,75.6,29.85,North,0,0.0,8.0,85,0.02,,---,0.02,VWS V14.01,2013-09-12 19:36:00,
2013-09-12 15:38:00,80.7,75.8,29.85,North,0,0.0,8.0,85,0.02,,---,0.02,VWS V14.01,2013-09-12 19:38:00,
2013-09-12 15:41:00,80.5,74.9,29.85,North,0,0.0,8.0,83,0.02,,---,0.02,VWS V14.01,2013-09-12 19:41:00,
2013-09-12 15:43:00,80.3,74.7,29.85,North,0,0.0,8.0,83,0.02,,---,0.02,VWS V14.01,2013-09-12 19:43:00,
2013-09-12 15:44:00,80.3,74.7,29.85,North,0,0.0,8.0,83,0.02,,---,0.02,VWS V14.01,2013-09-12 19:44:00,
2013-09-12 15:45:00,80.3,74.7,29.85,North,0,0.0,8.0,83,0.02,,---,0.02,VWS V14.01,2013-09-12 19:45:00,
2013-09-12 15:46:00,80.3,74.7,29.85,North,0,0.0,8.0,83,0.02,,---,0.02,VWS V14.01,2013-09-12 19:46:00,
2013-09-12 15:47:00,80.5,75.2,29.85,North,0,0.0,8.0,84,0.02,,---,0.02,VWS V14.01,2013-09-12 19:47:00,
2013-09-12 15:48:00,80.5,75.2,29.85,North,0,0.0,8.0,84,0.02,,---,0.02,VWS V14.01,2013-09-12 19:48:00,
2013-09-12 15:49:00,80.5,74.9,29.83,North,0,0.0,8.0,83,0.02,,---,0.02,VWS V14.01,2013-09-12 19:49:00,
2013-09-12 15:51:00,80.7,74.7,29.83,North,0,0.0,8.0,82,0.02,,---,0.02,VWS V14.01,2013-09-12 19:51:00,
2013-09-12 15:52:00,80.9,75.3,29.83,North,0,0.0,8.0,83,0.02,,---,0.02,VWS V14.01,2013-09-12 19:52:00,
2013-09-12 15:53:00,81.1,75.1,29.83,North,0,0.0,8.0,82,0.02,,---,0.02,VWS V14.01,2013-09-12 19:53:00,
2013-09-12 15:55:00,81.2,74.8,29.83,North,0,0.0,8.0,81,0.02,,---,0.02,VWS V14.01,2013-09-12 19:55:00,
2013-09-12 15:57:00,81.6,74.8,29.83,North,0,0.0,8.0,80,0.02,,---,0.02,VWS V14.01,2013-09-12 19:57:00,
2013-09-12 15:58:00,81.6,74.8,29.83,North,0,0.0,8.0,80,0.02,,---,0.02,VWS V14.01,2013-09-12 19:58:00,
2013-09-12 15:59:00,81.8,74.7,29.83,North,0,0.0,8.0,79,0.02,,---,0.02,VWS V14.01,2013-09-12 19:59:00,
2013-09-12 16:00:00,82.0,74.8,29.83,North,0,2.0,8.0,79,0.02,,---,0.02,VWS V14.01,2013-09-12 20:00:00,
2013-09-12 16:02:00,82.2,75.0,29.83,North,0,0.0,8.0,79,0.02,,---,0.02,VWS V14.01,2013-09-12 20:02:00,
2013-09-12 16:03:00,82.2,74.7,29.83,North,0,0.0,8.0,78,0.02,,---,0.02,VWS V14.01,2013-09-12 20:03:00,
2013-09-12 16:04:00,82.2,74.7,29.83,North,0,6.0,8.0,78,0.02,,---,0.02,VWS V14.01,2013-09-12 20:04:00,
2013-09-12 16:07:00,82.0,74.8,29.83,North,0,0.0,6.0,79,0.00,,---,0.02,VWS V14.01,2013-09-12 20:07:00,
2013-09-12 16:08:00,82.0,74.8,29.83,North,0,0.0,6.0,79,0.00,,---,0.02,VWS V14.01,2013-09-12 20:08:00,
2013-09-12 16:09:00,82.2,75.4,29.83,North,0,0.0,6.0,80,0.00,,---,0.02,VWS V14.01,2013-09-12 20:09:00,
2013-09-12 16:10:00,82.2,75.0,29.83,North,0,0.0,6.0,79,0.00,,---,0.02,VWS V14.01,2013-09-12 20:10:00,
2013-09-12 16:12:00,82.2,75.0,29.83,North,0,0.0,6.0,79,0.00,,---,0.02,VWS V14.01,2013-09-12 20:12:00,
2013-09-12 16:13:00,82.2,75.0,29.83,North,0,0.0,6.0,79,0.00,,---,0.02,VWS V14.01,2013-09-12 20:13:00,
2013-09-12 16:15:00,82.2,74.7,29.83,North,0,0.0,6.0,78,0.00,,---,0.02,VWS V14.01,2013-09-12 20:15:00,
2013-09-12 16:16:00,82.4,75.2,29.83,North,0,0.0,6.0,79,0.00,,---,0.02,VWS V14.01,2013-09-12 20:16:00,
2013-09-12 16:17:00,82.4,75.2,29.83,North,0,0.0,6.0,79,0.00,,---,0.02,VWS V14.01,2013-09-12 20:17:00,
2013-09-12 16:20:00,82.6,74.7,29.82,North,0,0.0,6.0,77,0.00,,---,0.02,VWS V14.01,2013-09-12 20:20:00,
2013-09-12 16:21:00,82.6,75.1,29.82,North,0,0.0,6.0,78,0.00,,---,0.02,VWS V14.01,2013-09-12 20:21:00,
2013-09-12 16:22:00,82.8,75.2,29.82,North,0,0.0,6.0,78,0.00,,---,0.02,VWS V14.01,2013-09-12 20:22:00,
2013-09-12 16:23:00,83.0,75.4,29.82,North,0,0.0,6.0,78,0.00,,---,0.02,VWS V14.01,2013-09-12 20:23:00,
2013-09-12 16:26:00,83.8,74.6,29.82,North,0,0.0,6.0,74,0.00,,---,0.02,VWS V14.01,2013-09-12 20:26:00,
2013-09-12 16:29:00,84.5,74.9,29.82,North,0,0.0,6.0,73,0.00,,---,0.02,VWS V14.01,2013-09-12 20:29:00,
2013-09-12 16:30:00,85.1,75.1,29.82,North,0,0.0,6.0,72,0.00,,---,0.02,VWS V14.01,2013-09-12 20:30:00,
2013-09-12 16:31:00,85.3,74.8,29.82,North,0,0.0,6.0,71,0.00,,---,0.02,VWS V14.01,2013-09-12 20:31:00,
2013-09-12 16:34:00,86.3,74.1,29.81,North,0,0.0,6.0,67,0.00,,---,0.02,VWS V14.01,2013-09-12 20:34:00,
2013-09-12 16:35:00,86.5,74.2,29.81,North,0,0.0,6.0,67,0.00,,---,0.02,VWS V14.01,2013-09-12 20:35:00,
2013-09-12 16:36:00,87.0,74.7,29.81,North,0,0.0,6.0,67,0.00,,---,0.02,VWS V14.01,2013-09-12 20:36:00,
2013-09-12 16:37:00,87.2,74.9,29.81,North,0,0.0,6.0,67,0.00,,---,0.02,VWS V14.01,2013-09-12 20:37:00,
2013-09-12 16:38:00,87.6,74.4,29.81,North,0,0.0,6.0,65,0.00,,---,0.02,VWS V14.01,2013-09-12 20:38:00,
2013-09-12 16:40:00,88.2,75.0,29.81,North,0,0.0,6.0,65,0.00,,---,0.02,VWS V14.01,2013-09-12 20:40:00,
2013-09-12 16:41:00,88.4,74.7,29.81,North,0,0.0,6.0,64,0.00,,---,0.02,VWS V14.01,2013-09-12 20:41:00,
2013-09-12 16:43:00,88.4,74.7,29.81,North,0,0.0,6.0,64,0.00,,---,0.02,VWS V14.01,2013-09-12 20:43:00,
2013-09-12 16:44:00,88.4,74.7,29.81,North,0,0.0,6.0,64,0.00,,---,0.02,VWS V14.01,2013-09-12 20:44:00,
2013-09-12 16:45:00,88.4,74.7,29.81,North,0,0.0,6.0,64,0.00,,---,0.02,VWS V14.01,2013-09-12 20:45:00,
2013-09-12 16:48:00,88.4,74.7,29.81,North,0,0.0,6.0,64,0.00,,---,0.02,VWS V14.01,2013-09-12 20:48:00,
2013-09-12 16:49:00,88.4,75.1,29.81,North,0,0.0,6.0,65,0.00,,---,0.02,VWS V14.01,2013-09-12 20:49:00,
2013-09-12 16:51:00,88.4,73.7,29.81,North,0,0.0,6.0,62,0.00,,---,0.02,VWS V14.01,2013-09-12 20:51:00,
2013-09-12 16:54:00,88.4,74.7,29.81,North,0,0.0,6.0,64,0.00,,---,0.02,VWS V14.01,2013-09-12 20:54:00,
2013-09-12 16:55:00,88.4,74.7,29.81,North,0,0.0,6.0,64,0.00,,---,0.02,VWS V14.01,2013-09-12 20:55:00,
2013-09-12 17:00:00,88.4,73.7,29.81,North,0,0.0,6.0,62,0.00,,---,0.02,VWS V14.01,2013-09-12 21:00:00,
2013-09-12 17:01:00,88.2,74.0,29.81,North,0,0.0,6.0,63,0.00,,---,0.02,VWS V14.01,2013-09-12 21:01:00,
2013-09-12 17:03:00,88.4,74.2,29.81,North,0,0.0,6.0,63,0.00,,---,0.02,VWS V14.01,2013-09-12 21:03:00,
2013-09-12 17:04:00,88.6,73.4,29.81,North,0,0.0,6.0,61,0.00,,---,0.02,VWS V14.01,2013-09-12 21:04:00,
2013-09-12 17:05:00,88.6,73.9,29.81,North,0,0.0,0.0,62,0.00,,---,0.02,VWS V14.01,2013-09-12 21:05:00,
2013-09-12 17:06:00,88.6,73.9,29.81,North,0,0.0,0.0,62,0.00,,---,0.02,VWS V14.01,2013-09-12 21:06:00,
2013-09-12 17:09:00,88.8,74.1,29.81,North,0,0.0,0.0,62,0.00,,---,0.02,VWS V14.01,2013-09-12 21:09:00,
2013-09-12 17:10:00,89.0,74.8,29.81,North,0,0.0,0.0,63,0.00,,---,0.02,VWS V14.01,2013-09-12 21:10:00,
2013-09-12 17:11:00,89.3,75.1,29.81,North,0,0.0,0.0,63,0.00,,---,0.02,VWS V14.01,2013-09-12 21:11:00,
2013-09-12 17:12:00,89.5,74.8,29.81,North,0,0.0,0.0,62,0.00,,---,0.02,VWS V14.01,2013-09-12 21:12:00,
2013-09-12 17:14:00,89.9,75.6,29.81,North,0,0.0,0.0,63,0.00,,---,0.02,VWS V14.01,2013-09-12 21:14:00,
2013-09-12 17:16:00,89.9,74.2,29.81,North,0,0.0,1.0,60,0.00,,---,0.02,VWS V14.01,2013-09-12 21:16:00,
2013-09-12 17:17:00,89.9,74.2,29.81,North,0,0.0,1.0,60,0.00,,---,0.02,VWS V14.01,2013-09-12 21:17:00,
2013-09-12 17:19:00,89.7,74.0,29.80,North,0,0.0,1.0,60,0.00,,---,0.02,VWS V14.01,2013-09-12 21:19:00,
2013-09-12 17:21:00,89.3,74.1,29.80,North,0,0.0,1.0,61,0.00,,---,0.02,VWS V14.01,2013-09-12 21:21:00,
2013-09-12 17:22:00,89.3,73.6,29.80,North,0,0.0,1.0,60,0.00,,---,0.02,VWS V14.01,2013-09-12 21:22:00,
2013-09-12 17:23:00,89.0,73.8,29.80,North,0,0.0,1.0,61,0.00,,---,0.02,VWS V14.01,2013-09-12 21:23:00,
2013-09-12 17:27:00,88.4,73.2,29.80,North,0,0.0,1.0,61,0.00,,---,0.02,VWS V14.01,2013-09-12 21:27:00,
2013-09-12 17:28:00,88.4,73.2,29.80,North,0,0.0,1.0,61,0.00,,---,0.02,VWS V14.01,2013-09-12 21:28:00,
2013-09-12 17:29:00,88.2,73.6,29.80,North,0,0.0,1.0,62,0.00,,---,0.02,VWS V14.01,2013-09-12 21:29:00,
2013-09-12 17:31:00,87.8,73.6,29.80,North,0,0.0,1.0,63,0.00,,---,0.02,VWS V14.01,2013-09-12 21:31:00,
2013-09-12 17:32:00,87.8,74.6,29.80,North,0,0.0,1.0,65,0.00,,---,0.02,VWS V14.01,2013-09-12 21:32:00,
2013-09-12 17:33:00,87.6,74.4,29.80,North,0,0.0,1.0,65,0.00,,---,0.02,VWS V14.01,2013-09-12 21:33:00,
2013-09-12 17:37:00,87.4,75.6,29.80,North,0,0.0,1.0,68,0.00,,---,0.02,VWS V14.01,2013-09-12 21:37:00,
2013-09-12 17:38:00,87.4,75.1,29.80,North,0,0.0,1.0,67,0.00,,---,0.02,VWS V14.01,2013-09-12 21:38:00,
2013-09-12 17:39:00,87.2,74.9,29.80,North,0,0.0,1.0,67,0.00,,---,0.02,VWS V14.01,2013-09-12 21:39:00,
2013-09-12 17:40:00,87.2,74.9,29.80,North,0,0.0,1.0,67,0.00,,---,0.02,VWS V14.01,2013-09-12 21:40:00,
2013-09-12 17:42:00,87.0,74.7,29.80,North,0,0.0,1.0,67,0.00,,---,0.02,VWS V14.01,2013-09-12 21:42:00,
2013-09-12 17:44:00,86.7,74.4,29.80,North,0,0.0,1.0,67,0.00,,---,0.02,VWS V14.01,2013-09-12 21:44:00,
2013-09-12 17:45:00,86.7,74.9,29.80,North,0,0.0,1.0,68,0.00,,---,0.02,VWS V14.01,2013-09-12 21:45:00,
2013-09-12 17:47:00,86.5,74.2,29.80,North,0,0.0,1.0,67,0.00,,---,0.02,VWS V14.01,2013-09-12 21:47:00,
2013-09-12 17:48:00,86.5,74.2,29.80,North,0,0.0,1.0,67,0.00,,---,0.02,VWS V14.01,2013-09-12 21:48:00,
2013-09-12 17:49:00,86.3,74.1,29.80,North,0,0.0,1.0,67,0.00,,---,0.02,VWS V14.01,2013-09-12 21:49:00,
2013-09-12 17:50:00,86.3,74.1,29.80,North,0,0.0,1.0,67,0.00,,---,0.02,VWS V14.01,2013-09-12 21:50:00,
2013-09-12 17:51:00,86.1,73.9,29.80,North,0,0.0,1.0,67,0.00,,---,0.02,VWS V14.01,2013-09-12 21:51:00,
2013-09-12 17:52:00,86.1,73.9,29.80,North,0,0.0,1.0,67,0.00,,---,0.02,VWS V14.01,2013-09-12 21:52:00,
2013-09-12 17:54:00,85.9,74.6,29.80,North,0,0.0,1.0,69,0.00,,---,0.02,VWS V14.01,2013-09-12 21:54:00,
2013-09-12 17:55:00,85.9,74.6,29.80,North,0,0.0,1.0,69,0.00,,---,0.02,VWS V14.01,2013-09-12 21:55:00,
2013-09-12 17:56:00,85.9,74.6,29.80,North,0,0.0,1.0,69,0.00,,---,0.02,VWS V14.01,2013-09-12 21:56:00,
2013-09-12 17:59:00,85.1,73.8,29.80,North,0,0.0,4.0,69,0.00,,---,0.02,VWS V14.01,2013-09-12 21:59:00,
2013-09-12 18:00:00,84.9,73.6,29.80,North,0,0.0,4.0,69,0.00,,---,0.02,VWS V14.01,2013-09-12 22:00:00,
2013-09-12 18:01:00,84.5,73.7,29.80,North,0,0.0,4.0,70,0.00,,---,0.02,VWS V14.01,2013-09-12 22:01:00,
2013-09-12 18:03:00,84.1,73.3,29.81,North,0,0.0,4.0,70,0.00,,---,0.02,VWS V14.01,2013-09-12 22:03:00,
2013-09-12 18:04:00,84.0,72.7,29.81,North,0,0.0,0.0,69,0.00,,---,0.02,VWS V14.01,2013-09-12 22:04:00,
2013-09-12 18:05:00,83.8,72.6,29.81,North,0,0.0,0.0,69,0.00,,---,0.02,VWS V14.01,2013-09-12 22:05:00,
2013-09-12 18:07:00,83.4,72.6,29.81,North,0,0.0,0.0,70,0.00,,---,0.02,VWS V14.01,2013-09-12 22:07:00,
2013-09-12 18:10:00,83.2,72.8,29.81,North,0,0.0,4.0,71,0.00,,---,0.02,VWS V14.01,2013-09-12 22:10:00,
2013-09-12 18:12:00,82.8,73.3,29.81,North,0,0.0,5.0,73,0.00,,---,0.02,VWS V14.01,2013-09-12 22:12:00,
2013-09-12 18:15:00,82.8,73.3,29.81,North,0,0.0,5.0,73,0.00,,---,0.02,VWS V14.01,2013-09-12 22:15:00,
2013-09-12 18:16:00,82.6,72.7,29.81,North,0,0.0,5.0,72,0.00,,---,0.02,VWS V14.01,2013-09-12 22:16:00,
2013-09-12 18:17:00,82.6,72.2,29.81,North,0,0.0,5.0,71,0.00,,---,0.02,VWS V14.01,2013-09-12 22:17:00,
2013-09-12 18:18:00,82.6,72.2,29.82,North,0,0.0,5.0,71,0.00,,---,0.02,VWS V14.01,2013-09-12 22:18:00,
2013-09-12 18:20:00,82.4,72.5,29.82,North,0,0.0,5.0,72,0.00,,---,0.02,VWS V14.01,2013-09-12 22:20:00,
2013-09-12 18:22:00,82.2,72.3,29.82,North,0,0.0,5.0,72,0.00,,---,0.02,VWS V14.01,2013-09-12 22:22:00,
2013-09-12 18:23:00,82.0,71.7,29.82,North,0,0.0,5.0,71,0.00,,---,0.02,VWS V14.01,2013-09-12 22:23:00,
2013-09-12 18:24:00,81.8,71.5,29.82,North,0,0.0,5.0,71,0.00,,---,0.02,VWS V14.01,2013-09-12 22:24:00,
2013-09-12 18:27:00,81.6,71.7,29.82,North,0,0.0,5.0,72,0.00,,---,0.02,VWS V14.01,2013-09-12 22:27:00,
2013-09-12 18:28:00,81.4,71.5,29.82,North,0,0.0,5.0,72,0.00,,---,0.02,VWS V14.01,2013-09-12 22:28:00,
2013-09-12 18:29:00,81.4,71.5,29.82,North,0,0.0,5.0,72,0.00,,---,0.02,VWS V14.01,2013-09-12 22:29:00,
2013-09-12 18:30:00,81.4,71.5,29.82,North,0,3.0,6.0,72,0.00,,---,0.02,VWS V14.01,2013-09-12 22:30:00,
2013-09-12 18:34:00,81.1,71.6,29.83,North,0,0.0,6.0,73,0.00,,---,0.02,VWS V14.01,2013-09-12 22:34:00,
2013-09-12 18:35:00,81.1,71.6,29.83,North,0,0.0,6.0,73,0.00,,---,0.02,VWS V14.01,2013-09-12 22:35:00,
2013-09-12 18:38:00,80.9,71.8,29.83,North,0,5.0,6.0,74,0.00,,---,0.02,VWS V14.01,2013-09-12 22:38:00,
2013-09-12 18:39:00,80.9,72.2,29.83,North,0,0.0,6.0,75,0.00,,---,0.02,VWS V14.01,2013-09-12 22:39:00,
2013-09-12 18:40:00,80.9,72.6,29.83,North,0,0.0,6.0,76,0.00,,---,0.02,VWS V14.01,2013-09-12 22:40:00,
2013-09-12 18:41:00,80.9,73.0,29.83,North,0,0.0,6.0,77,0.00,,---,0.02,VWS V14.01,2013-09-12 22:41:00,
2013-09-12 18:43:00,80.9,73.8,29.83,North,0,0.0,6.0,79,0.00,,---,0.02,VWS V14.01,2013-09-12 22:43:00,
2013-09-12 18:48:00,80.3,73.9,29.83,North,0,7.0,7.0,81,0.00,,---,0.02,VWS V14.01,2013-09-12 22:48:00,
2013-09-12 18:49:00,79.8,73.4,29.83,North,0,7.0,7.0,81,0.00,,---,0.02,VWS V14.01,2013-09-12 22:49:00,
2013-09-12 18:50:00,79.6,73.3,29.83,North,0,0.0,10.0,81,0.00,,---,0.02,VWS V14.01,2013-09-12 22:50:00,
2013-09-12 18:53:00,78.8,73.2,29.83,North,0,4.0,10.0,83,0.01,,---,0.03,VWS V14.01,2013-09-12 22:53:00,
2013-09-12 18:55:00,78.5,73.3,29.83,North,0,6.0,10.0,84,0.01,,---,0.03,VWS V14.01,2013-09-12 22:55:00,
2013-09-12 18:56:00,78.1,73.2,29.83,North,0,0.0,10.0,85,0.01,,---,0.03,VWS V14.01,2013-09-12 22:56:00,
2013-09-12 18:57:00,78.1,73.2,29.83,North,0,0.0,10.0,85,0.01,,---,0.03,VWS V14.01,2013-09-12 22:57:00,
2013-09-12 18:59:00,77.7,73.2,29.83,North,0,1.0,10.0,86,0.02,,---,0.04,VWS V14.01,2013-09-12 22:59:00,
2013-09-12 19:02:00,77.0,72.8,29.83,North,0,0.0,10.0,87,0.02,,---,0.04,VWS V14.01,2013-09-12 23:02:00,
2013-09-12 19:04:00,76.8,73.0,29.83,North,0,0.0,10.0,88,0.02,,---,0.04,VWS V14.01,2013-09-12 23:04:00,
2013-09-12 19:06:00,76.5,72.7,29.83,North,0,0.0,5.0,88,0.02,,---,0.04,VWS V14.01,2013-09-12 23:06:00,
2013-09-12 19:07:00,76.5,72.7,29.83,North,0,1.0,5.0,88,0.03,,---,0.05,VWS V14.01,2013-09-12 23:07:00,
2013-09-12 19:09:00,76.3,72.5,29.83,North,0,4.0,6.0,88,0.03,,---,0.05,VWS V14.01,2013-09-12 23:09:00,
2013-09-12 19:10:00,76.1,72.3,29.83,North,0,0.0,6.0,88,0.03,,---,0.05,VWS V14.01,2013-09-12 23:10:00,
2013-09-12 19:12:00,76.1,72.6,29.83,North,0,0.0,6.0,89,0.03,,---,0.05,VWS V14.01,2013-09-12 23:12:00,
2013-09-12 19:13:00,76.0,72.5,29.83,North,0,0.0,6.0,89,0.03,,---,0.05,VWS V14.01,2013-09-12 23:13:00,
2013-09-12 19:15:00,76.0,72.5,29.83,North,0,0.0,6.0,89,0.03,,---,0.05,VWS V14.01,2013-09-12 23:15:00,
2013-09-12 19:16:00,76.0,72.9,29.83,North,0,0.0,6.0,90,0.03,,---,0.05,VWS V14.01,2013-09-12 23:16:00,
2013-09-12 19:18:00,76.1,73.0,29.83,North,0,0.0,6.0,90,0.03,,---,0.05,VWS V14.01,2013-09-12 23:18:00,
2013-09-12 19:20:00,76.1,73.0,29.83,North,0,0.0,6.0,90,0.03,,---,0.05,VWS V14.01,2013-09-12 23:20:00,
2013-09-12 19:21:00,76.1,73.0,29.83,North,0,0.0,6.0,90,0.04,,---,0.06,VWS V14.01,2013-09-12 23:21:00,
2013-09-12 19:24:00,76.0,73.2,29.83,North,0,5.0,6.0,91,0.04,,---,0.06,VWS V14.01,2013-09-12 23:24:00,
2013-09-12 19:26:00,76.0,73.2,29.83,North,0,0.0,7.0,91,0.04,,---,0.06,VWS V14.01,2013-09-12 23:26:00,
2013-09-12 19:27:00,76.0,73.2,29.83,North,0,2.0,7.0,91,0.04,,---,0.06,VWS V14.01,2013-09-12 23:27:00,
2013-09-12 19:28:00,75.8,73.0,29.83,North,0,0.0,7.0,91,0.05,,---,0.07,VWS V14.01,2013-09-12 23:28:00,
2013-09-12 19:30:00,75.8,73.3,29.83,North,0,0.0,7.0,92,0.05,,---,0.07,VWS V14.01,2013-09-12 23:30:00,
2013-09-12 19:32:00,75.8,73.3,29.83,North,0,0.0,7.0,92,0.05,,---,0.07,VWS V14.01,2013-09-12 23:32:00,
2013-09-12 19:33:00,75.8,73.6,29.83,North,0,0.0,7.0,93,0.05,,---,0.07,VWS V14.01,2013-09-12 23:33:00,
2013-09-12 19:34:00,75.8,73.6,29.85,North,0,4.0,7.0,93,0.05,,---,0.07,VWS V14.01,2013-09-12 23:34:00,
2013-09-12 19:35:00,75.8,73.6,29.85,North,0,0.0,7.0,93,0.05,,---,0.07,VWS V14.01,2013-09-12 23:35:00,
2013-09-12 19:39:00,75.8,73.6,29.85,North,0,0.0,7.0,93,0.05,,---,0.07,VWS V14.01,2013-09-12 23:39:00,
2013-09-12 19:40:00,75.6,73.4,29.85,North,0,0.0,7.0,93,0.06,,---,0.08,VWS V14.01,2013-09-12 23:40:00,
2013-09-12 19:41:00,75.6,73.4,29.85,North,0,0.0,7.0,93,0.06,,---,0.08,VWS V14.01,2013-09-12 23:41:00,
2013-09-12 19:46:00,75.4,73.6,29.85,North,0,0.0,7.0,94,0.07,,---,0.09,VWS V14.01,2013-09-12 23:46:00,
2013-09-12 19:47:00,75.4,73.6,29.85,North,0,0.0,7.0,94,0.07,,---,0.09,VWS V14.01,2013-09-12 23:47:00,
2013-09-12 19:50:00,75.3,73.5,29.86,North,0,0.0,7.0,94,0.07,,---,0.09,VWS V14.01,2013-09-12 23:50:00,
2013-09-12 19:51:00,75.3,73.5,29.86,North,0,0.0,7.0,94,0.07,,---,0.09,VWS V14.01,2013-09-12 23:51:00,
2013-09-12 19:52:00,75.3,73.5,29.86,North,0,0.0,7.0,94,0.07,,---,0.09,VWS V14.01,2013-09-12 23:52:00,
2013-09-12 19:56:00,75.1,73.3,29.86,North,0,0.0,7.0,94,0.07,,---,0.09,VWS V14.01,2013-09-12 23:56:00,
2013-09-12 19:57:00,75.1,73.3,29.86,North,0,0.0,7.0,94,0.07,,---,0.09,VWS V14.01,2013-09-12 23:57:00,
2013-09-12 19:58:00,75.1,73.3,29.86,North,0,0.0,7.0,94,0.07,,---,0.09,VWS V14.01,2013-09-12 23:58:00,
2013-09-12 20:01:00,74.9,72.7,29.86,North,0,5.0,7.0,93,0.07,,---,0.09,VWS V14.01,2013-09-13 00:01:00,
2013-09-12 20:02:00,74.9,73.1,29.86,North,0,5.0,8.0,94,0.07,,---,0.09,VWS V14.01,2013-09-13 00:02:00,
2013-09-12 20:03:00,74.7,72.6,29.86,North,0,0.0,8.0,93,0.07,,---,0.09,VWS V14.01,2013-09-13 00:03:00,
2013-09-12 20:06:00,74.6,72.4,29.86,North,0,4.0,5.0,93,0.05,,---,0.09,VWS V14.01,2013-09-13 00:06:00,
2013-09-12 20:07:00,74.6,72.4,29.86,North,0,0.0,6.0,93,0.06,,---,0.10,VWS V14.01,2013-09-13 00:07:00,
2013-09-12 20:08:00,74.4,72.2,29.86,North,0,0.0,6.0,93,0.06,,---,0.10,VWS V14.01,2013-09-13 00:08:00,
2013-09-12 20:09:00,74.4,72.2,29.86,North,0,0.0,6.0,93,0.06,,---,0.10,VWS V14.01,2013-09-13 00:09:00,
2013-09-12 20:10:00,74.4,72.6,29.86,North,0,0.0,6.0,94,0.06,,---,0.10,VWS V14.01,2013-09-13 00:10:00,
2013-09-12 20:12:00,74.4,72.6,29.86,North,0,0.0,6.0,94,0.06,,---,0.10,VWS V14.01,2013-09-13 00:12:00,
2013-09-12 20:14:00,74.2,72.4,29.86,North,0,0.0,6.0,94,0.06,,---,0.10,VWS V14.01,2013-09-13 00:14:00,
2013-09-12 20:15:00,74.2,72.4,29.86,North,0,0.0,6.0,94,0.06,,---,0.10,VWS V14.01,2013-09-13 00:15:00,
2013-09-12 20:17:00,74.2,72.4,29.86,North,0,0.0,6.0,94,0.06,,---,0.10,VWS V14.01,2013-09-13 00:17:00,
2013-09-12 20:19:00,74.2,72.4,29.86,North,0,0.0,6.0,94,0.06,,---,0.10,VWS V14.01,2013-09-13 00:19:00,
2013-09-12 20:22:00,74.2,72.4,29.86,North,0,0.0,6.0,94,0.06,,---,0.10,VWS V14.01,2013-09-13 00:22:00,
2013-09-12 20:23:00,74.2,72.4,29.86,North,0,0.0,6.0,94,0.06,,---,0.10,VWS V14.01,2013-09-13 00:23:00,
2013-09-12 20:24:00,74.0,72.2,29.86,North,0,0.0,6.0,94,0.06,,---,0.10,VWS V14.01,2013-09-13 00:24:00,
2013-09-12 20:25:00,74.0,72.2,29.86,North,0,0.0,6.0,94,0.06,,---,0.10,VWS V14.01,2013-09-13 00:25:00,
2013-09-12 20:26:00,74.0,72.2,29.86,North,0,0.0,6.0,94,0.06,,---,0.10,VWS V14.01,2013-09-13 00:26:00,
2013-09-12 20:28:00,74.0,72.2,29.86,North,0,0.0,6.0,94,0.06,,---,0.10,VWS V14.01,2013-09-13 00:28:00,
2013-09-12 20:31:00,74.0,72.5,29.86,North,0,0.0,6.0,95,0.06,,---,0.10,VWS V14.01,2013-09-13 00:31:00,
2013-09-12 20:32:00,74.0,72.5,29.86,North,0,0.0,6.0,95,0.06,,---,0.10,VWS V14.01,2013-09-13 00:32:00,
2013-09-12 20:34:00,74.0,72.5,29.86,North,0,0.0,6.0,95,0.06,,---,0.10,VWS V14.01,2013-09-13 00:34:00,
2013-09-12 20:36:00,74.0,72.5,29.86,North,0,0.0,6.0,95,0.06,,---,0.10,VWS V14.01,2013-09-13 00:36:00,
2013-09-12 20:38:00,74.0,72.5,29.86,North,0,0.0,6.0,95,0.06,,---,0.10,VWS V14.01,2013-09-13 00:38:00,
2013-09-12 20:39:00,74.0,72.5,29.86,North,0,0.0,6.0,95,0.06,,---,0.10,VWS V14.01,2013-09-13 00:39:00,
2013-09-12 20:42:00,73.9,72.4,29.86,North,0,0.0,6.0,95,0.06,,---,0.10,VWS V14.01,2013-09-13 00:42:00,
2013-09-12 20:44:00,73.9,72.4,29.86,North,0,0.0,6.0,95,0.06,,---,0.10,VWS V14.01,2013-09-13 00:44:00,
2013-09-12 20:45:00,73.9,72.4,29.86,North,0,0.0,6.0,95,0.06,,---,0.10,VWS V14.01,2013-09-13 00:45:00,
2013-09-12 20:46:00,73.9,72.4,29.86,North,0,0.0,6.0,95,0.06,,---,0.10,VWS V14.01,2013-09-13 00:46:00,
2013-09-12 20:47:00,73.9,72.4,29.86,North,0,0.0,6.0,95,0.06,,---,0.10,VWS V14.01,2013-09-13 00:47:00,
2013-09-12 20:49:00,73.9,72.7,29.85,North,0,0.0,6.0,96,0.06,,---,0.10,VWS V14.01,2013-09-13 00:49:00,
2013-09-12 20:50:00,73.9,72.7,29.85,North,0,0.0,6.0,96,0.06,,---,0.10,VWS V14.01,2013-09-13 00:50:00,
2013-09-12 20:51:00,73.9,72.7,29.85,North,0,0.0,6.0,96,0.06,,---,0.10,VWS V14.01,2013-09-13 00:51:00,
2013-09-12 20:53:00,73.9,72.7,29.85,North,0,0.0,6.0,96,0.07,,---,0.11,VWS V14.01,2013-09-13 00:53:00,
2013-09-12 20:54:00,73.9,72.7,29.85,North,0,0.0,6.0,96,0.07,,---,0.11,VWS V14.01,2013-09-13 00:54:00,
2013-09-12 20:56:00,73.9,72.7,29.85,North,0,0.0,6.0,96,0.07,,---,0.11,VWS V14.01,2013-09-13 00:56:00,
2013-09-12 20:57:00,73.9,72.7,29.85,North,0,0.0,6.0,96,0.07,,---,0.11,VWS V14.01,2013-09-13 00:57:00,
2013-09-12 21:02:00,73.9,72.7,29.85,North,0,0.0,6.0,96,0.07,,---,0.11,VWS V14.01,2013-09-13 01:02:00,
2013-09-12 21:03:00,73.9,72.7,29.85,North,0,0.0,6.0,96,0.07,,---,0.11,VWS V14.01,2013-09-13 01:03:00,
2013-09-12 21:04:00,73.9,72.7,29.85,North,0,0.0,6.0,96,0.07,,---,0.11,VWS V14.01,2013-09-13 01:04:00,
2013-09-12 21:07:00,73.9,72.7,29.85,North,0,0.0,0.0,96,0.02,,---,0.11,VWS V14.01,2013-09-13 01:07:00,
2013-09-12 21:08:00,73.9,72.7,29.85,North,0,0.0,0.0,96,0.02,,---,0.11,VWS V14.01,2013-09-13 01:08:00,
2013-09-12 21:11:00,73.9,72.7,29.85,North,0,0.0,0.0,96,0.02,,---,0.11,VWS V14.01,2013-09-13 01:11:00,
2013-09-12 21:12:00,73.9,72.7,29.85,North,0,0.0,0.0,96,0.02,,---,0.11,VWS V14.01,2013-09-13 01:12:00,
2013-09-12 21:13:00,73.9,72.7,29.85,North,0,0.0,0.0,96,0.02,,---,0.11,VWS V14.01,2013-09-13 01:13:00,
2013-09-12 21:14:00,73.9,72.7,29.85,North,0,0.0,0.0,96,0.02,,---,0.11,VWS V14.01,2013-09-13 01:14:00,
2013-09-12 21:15:00,73.7,72.5,29.85,North,0,0.0,0.0,96,0.02,,---,0.11,VWS V14.01,2013-09-13 01:15:00,
2013-09-12 21:17:00,73.7,72.5,29.85,North,0,0.0,0.0,96,0.02,,---,0.11,VWS V14.01,2013-09-13 01:17:00,
2013-09-12 21:20:00,73.7,72.5,29.85,North,0,0.0,0.0,96,0.02,,---,0.11,VWS V14.01,2013-09-13 01:20:00,
2013-09-12 21:21:00,73.7,72.5,29.85,North,0,0.0,0.0,96,0.02,,---,0.11,VWS V14.01,2013-09-13 01:21:00,
2013-09-12 21:22:00,73.7,72.5,29.85,North,0,0.0,0.0,96,0.02,,---,0.11,VWS V14.01,2013-09-13 01:22:00,
2013-09-12 21:25:00,73.7,72.5,29.85,North,0,0.0,0.0,96,0.02,,---,0.11,VWS V14.01,2013-09-13 01:25:00,
2013-09-12 21:26:00,73.7,72.5,29.85,North,0,0.0,0.0,96,0.02,,---,0.11,VWS V14.01,2013-09-13 01:26:00,
2013-09-12 21:27:00,73.5,72.3,29.85,North,0,0.0,0.0,96,0.02,,---,0.11,VWS V14.01,2013-09-13 01:27:00,
2013-09-12 21:28:00,73.5,72.3,29.85,North,0,0.0,0.0,96,0.02,,---,0.11,VWS V14.01,2013-09-13 01:28:00,
2013-09-12 21:30:00,73.5,72.3,29.85,North,0,0.0,0.0,96,0.02,,---,0.11,VWS V14.01,2013-09-13 01:30:00,
2013-09-12 21:31:00,73.5,72.6,29.85,North,0,0.0,0.0,97,0.02,,---,0.11,VWS V14.01,2013-09-13 01:31:00,
2013-09-12 21:32:00,73.5,72.3,29.85,North,0,0.0,0.0,96,0.02,,---,0.11,VWS V14.01,2013-09-13 01:32:00,
2013-09-12 21:33:00,73.5,72.3,29.85,North,0,0.0,0.0,96,0.02,,---,0.11,VWS V14.01,2013-09-13 01:33:00,
2013-09-12 21:36:00,73.5,72.6,29.84,North,0,0.0,0.0,97,0.02,,---,0.11,VWS V14.01,2013-09-13 01:36:00,
2013-09-12 21:38:00,73.5,72.6,29.84,North,0,0.0,0.0,97,0.02,,---,0.11,VWS V14.01,2013-09-13 01:38:00,
2013-09-12 21:39:00,73.5,72.6,29.84,North,0,0.0,0.0,97,0.02,,---,0.11,VWS V14.01,2013-09-13 01:39:00,
2013-09-12 21:40:00,73.5,72.6,29.84,North,0,0.0,0.0,97,0.02,,---,0.11,VWS V14.01,2013-09-13 01:40:00,
2013-09-12 21:44:00,73.5,72.6,29.84,North,0,0.0,0.0,97,0.02,,---,0.11,VWS V14.01,2013-09-13 01:44:00,
2013-09-12 21:46:00,73.5,72.6,29.84,North,0,0.0,0.0,97,0.02,,---,0.11,VWS V14.01,2013-09-13 01:46:00,
2013-09-12 21:48:00,73.3,72.4,29.84,North,0,0.0,0.0,97,0.02,,---,0.11,VWS V14.01,2013-09-13 01:48:00,
2013-09-12 21:49:00,73.3,72.4,29.84,North,0,0.0,0.0,97,0.02,,---,0.11,VWS V14.01,2013-09-13 01:49:00,
2013-09-12 21:50:00,73.3,72.4,29.84,North,0,0.0,0.0,97,0.02,,---,0.11,VWS V14.01,2013-09-13 01:50:00,
2013-09-12 21:51:00,73.3,72.4,29.84,North,0,0.0,0.0,97,0.02,,---,0.11,VWS V14.01,2013-09-13 01:51:00,
2013-09-12 21:54:00,73.3,72.4,29.84,North,0,0.0,0.0,97,0.02,,---,0.11,VWS V14.01,2013-09-13 01:54:00,
2013-09-12 21:55:00,73.3,72.4,29.84,North,0,0.0,0.0,97,0.02,,---,0.11,VWS V14.01,2013-09-13 01:55:00,
2013-09-12 21:56:00,73.3,72.4,29.84,North,0,0.0,0.0,97,0.02,,---,0.11,VWS V14.01,2013-09-13 01:56:00,
2013-09-12 21:58:00,73.3,72.4,29.84,North,0,0.0,0.0,97,0.02,,---,0.11,VWS V14.01,2013-09-13 01:58:00,
2013-09-12 22:00:00,73.2,72.3,29.84,North,0,0.0,0.0,97,0.02,,---,0.11,VWS V14.01,2013-09-13 02:00:00,
2013-09-12 22:01:00,73.2,72.3,29.84,North,0,0.0,0.0,97,0.02,,---,0.11,VWS V14.01,2013-09-13 02:01:00,
2013-09-12 22:02:00,73.2,72.3,29.84,North,0,0.0,0.0,97,0.02,,---,0.11,VWS V14.01,2013-09-13 02:02:00,
2013-09-12 22:04:00,73.2,72.3,29.84,North,0,0.0,0.0,97,0.00,,---,0.11,VWS V14.01,2013-09-13 02:04:00,
2013-09-12 22:05:00,73.2,72.3,29.84,North,0,0.0,0.0,97,0.00,,---,0.11,VWS V14.01,2013-09-13 02:05:00,
2013-09-12 22:06:00,73.2,72.3,29.84,North,0,0.0,0.0,97,0.00,,---,0.11,VWS V14.01,2013-09-13 02:06:00,
2013-09-12 22:07:00,73.2,72.3,29.84,North,0,0.0,0.0,97,0.00,,---,0.11,VWS V14.01,2013-09-13 02:07:00,
2013-09-12 22:09:00,73.2,72.3,29.84,North,0,0.0,0.0,97,0.00,,---,0.11,VWS V14.01,2013-09-13 02:09:00,
2013-09-12 22:10:00,73.2,72.3,29.84,North,0,0.0,0.0,97,0.00,,---,0.11,VWS V14.01,2013-09-13 02:10:00,
2013-09-12 22:11:00,73.2,72.3,29.84,North,0,0.0,0.0,97,0.00,,---,0.11,VWS V14.01,2013-09-13 02:11:00,
2013-09-12 22:12:00,73.2,72.3,29.84,North,0,0.0,0.0,97,0.00,,---,0.11,VWS V14.01,2013-09-13 02:12:00,
2013-09-12 22:15:00,73.2,72.3,29.84,North,0,0.0,0.0,97,0.00,,---,0.11,VWS V14.01,2013-09-13 02:15:00,
2013-09-12 22:16:00,73.0,72.1,29.84,North,0,0.0,0.0,97,0.00,,---,0.11,VWS V14.01,2013-09-13 02:16:00,
2013-09-12 22:17:00,73.0,72.1,29.84,North,0,0.0,0.0,97,0.00,,---,0.11,VWS V14.01,2013-09-13 02:17:00,
2013-09-12 22:18:00,73.0,72.1,29.84,North,0,0.0,0.0,97,0.00,,---,0.11,VWS V14.01,2013-09-13 02:18:00,
2013-09-12 22:20:00,73.0,72.1,29.84,North,0,0.0,0.0,97,0.00,,---,0.11,VWS V14.01,2013-09-13 02:20:00,
2013-09-12 22:22:00,73.0,72.1,29.84,North,0,0.0,0.0,97,0.00,,---,0.11,VWS V14.01,2013-09-13 02:22:00,
2013-09-12 22:23:00,73.0,72.1,29.84,North,0,0.0,0.0,97,0.00,,---,0.11,VWS V14.01,2013-09-13 02:23:00,
2013-09-12 22:25:00,73.0,72.1,29.84,North,0,0.0,0.0,97,0.00,,---,0.11,VWS V14.01,2013-09-13 02:25:00,
2013-09-12 22:26:00,73.0,72.1,29.84,North,0,0.0,0.0,97,0.00,,---,0.11,VWS V14.01,2013-09-13 02:26:00,
2013-09-12 22:27:00,73.0,72.1,29.84,North,0,0.0,0.0,97,0.00,,---,0.11,VWS V14.01,2013-09-13 02:27:00,
2013-09-12 22:28:00,73.0,72.1,29.84,North,0,0.0,0.0,97,0.00,,---,0.11,VWS V14.01,2013-09-13 02:28:00,
2013-09-12 22:29:00,73.0,72.1,29.84,North,0,0.0,0.0,97,0.00,,---,0.11,VWS V14.01,2013-09-13 02:29:00,
2013-09-12 22:30:00,73.0,72.1,29.84,North,0,0.0,0.0,97,0.00,,---,0.11,VWS V14.01,2013-09-13 02:30:00,
2013-09-12 22:31:00,73.0,72.1,29.84,North,0,0.0,0.0,97,0.00,,---,0.11,VWS V14.01,2013-09-13 02:31:00,
2013-09-12 22:32:00,73.0,72.1,29.84,North,0,0.0,0.0,97,0.00,,---,0.11,VWS V14.01,2013-09-13 02:32:00,
2013-09-12 22:34:00,73.0,72.1,29.84,North,0,0.0,0.0,97,0.00,,---,0.11,VWS V14.01,2013-09-13 02:34:00,
2013-09-12 22:36:00,72.8,71.9,29.84,North,0,0.0,0.0,97,0.00,,---,0.11,VWS V14.01,2013-09-13 02:36:00,
2013-09-12 22:37:00,72.8,71.9,29.84,North,0,0.0,0.0,97,0.00,,---,0.11,VWS V14.01,2013-09-13 02:37:00,
2013-09-12 22:38:00,72.8,71.9,29.84,North,0,0.0,0.0,97,0.00,,---,0.11,VWS V14.01,2013-09-13 02:38:00,
2013-09-12 22:42:00,72.8,71.9,29.84,North,0,0.0,0.0,97,0.00,,---,0.11,VWS V14.01,2013-09-13 02:42:00,
2013-09-12 22:43:00,72.8,71.9,29.84,North,0,0.0,0.0,97,0.00,,---,0.11,VWS V14.01,2013-09-13 02:43:00,
2013-09-12 22:44:00,72.7,71.8,29.84,North,0,0.0,0.0,97,0.00,,---,0.11,VWS V14.01,2013-09-13 02:44:00,
2013-09-12 22:46:00,72.7,71.8,29.84,North,0,0.0,0.0,97,0.00,,---,0.11,VWS V14.01,2013-09-13 02:46:00,
2013-09-12 22:47:00,72.7,71.8,29.84,North,0,0.0,0.0,97,0.00,,---,0.11,VWS V14.01,2013-09-13 02:47:00,
2013-09-12 22:48:00,72.7,71.8,29.84,North,0,0.0,0.0,97,0.00,,---,0.11,VWS V14.01,2013-09-13 02:48:00,
2013-09-12 22:50:00,72.7,71.8,29.84,North,0,0.0,0.0,97,0.00,,---,0.11,VWS V14.01,2013-09-13 02:50:00,
2013-09-12 22:52:00,72.7,71.8,29.84,North,0,0.0,0.0,97,0.00,,---,0.11,VWS V14.01,2013-09-13 02:52:00,
2013-09-12 22:53:00,72.7,71.8,29.84,North,0,0.0,0.0,97,0.00,,---,0.11,VWS V14.01,2013-09-13 02:53:00,
2013-09-12 22:55:00,72.7,71.8,29.84,North,0,0.0,0.0,97,0.00,,---,0.11,VWS V14.01,2013-09-13 02:55:00,
2013-09-12 22:56:00,72.7,71.8,29.84,North,0,0.0,0.0,97,0.00,,---,0.11,VWS V14.01,2013-09-13 02:56:00,
2013-09-12 22:58:00,72.5,71.6,29.84,North,0,0.0,0.0,97,0.00,,---,0.11,VWS V14.01,2013-09-13 02:58:00,
2013-09-12 22:59:00,72.5,71.6,29.84,North,0,0.0,0.0,97,0.00,,---,0.11,VWS V14.01,2013-09-13 02:59:00,
2013-09-12 23:00:00,72.5,71.6,29.84,North,0,0.0,0.0,97,0.00,,---,0.11,VWS V14.01,2013-09-13 03:00:00,
2013-09-12 23:01:00,72.5,71.6,29.84,North,0,0.0,0.0,97,0.00,,---,0.11,VWS V14.01,2013-09-13 03:01:00,
2013-09-12 23:04:00,72.3,71.4,29.83,North,0,0.0,0.0,97,0.00,,---,0.11,VWS V14.01,2013-09-13 03:04:00,
2013-09-12 23:05:00,72.3,71.4,29.83,North,0,0.0,0.0,97,0.00,,---,0.11,VWS V14.01,2013-09-13 03:05:00,
2013-09-12 23:06:00,72.3,71.4,29.83,North,0,0.0,0.0,97,0.00,,---,0.11,VWS V14.01,2013-09-13 03:06:00,
2013-09-12 23:07:00,72.3,71.4,29.83,North,0,0.0,0.0,97,0.00,,---,0.11,VWS V14.01,2013-09-13 03:07:00,
2013-09-12 23:09:00,72.3,71.4,29.83,North,0,0.0,0.0,97,0.00,,---,0.11,VWS V14.01,2013-09-13 03:09:00,
2013-09-12 23:10:00,72.3,71.4,29.83,North,0,0.0,0.0,97,0.00,,---,0.11,VWS V14.01,2013-09-13 03:10:00,
2013-09-12 23:11:00,72.3,71.4,29.83,North,0,0.0,0.0,97,0.00,,---,0.11,VWS V14.01,2013-09-13 03:11:00,
2013-09-12 23:12:00,72.3,71.4,29.83,North,0,0.0,0.0,97,0.00,,---,0.11,VWS V14.01,2013-09-13 03:12:00,
2013-09-12 23:15:00,72.3,71.4,29.83,North,0,0.0,0.0,97,0.00,,---,0.11,VWS V14.01,2013-09-13 03:15:00,
2013-09-12 23:17:00,72.3,71.4,29.83,North,0,0.0,0.0,97,0.00,,---,0.11,VWS V14.01,2013-09-13 03:17:00,
2013-09-12 23:18:00,72.3,71.4,29.83,North,0,0.0,0.0,97,0.00,,---,0.11,VWS V14.01,2013-09-13 03:18:00,
2013-09-12 23:19:00,72.3,71.4,29.83,North,0,0.0,0.0,97,0.00,,---,0.11,VWS V14.01,2013-09-13 03:19:00,
2013-09-12 23:20:00,72.3,71.4,29.83,North,0,0.0,0.0,97,0.00,,---,0.11,VWS V14.01,2013-09-13 03:20:00,
2013-09-12 23:21:00,72.3,71.4,29.83,North,0,0.0,0.0,97,0.00,,---,0.11,VWS V14.01,2013-09-13 03:21:00,
2013-09-12 23:22:00,72.3,71.4,29.83,North,0,0.0,0.0,97,0.00,,---,0.11,VWS V14.01,2013-09-13 03:22:00,
2013-09-12 23:23:00,72.3,71.4,29.83,North,0,0.0,0.0,97,0.00,,---,0.11,VWS V14.01,2013-09-13 03:23:00,
2013-09-12 23:24:00,72.3,71.4,29.83,North,0,0.0,0.0,97,0.00,,---,0.11,VWS V14.01,2013-09-13 03:24:00,
2013-09-12 23:26:00,72.3,71.4,29.83,North,0,0.0,0.0,97,0.00,,---,0.11,VWS V14.01,2013-09-13 03:26:00,
2013-09-12 23:27:00,72.3,71.4,29.83,North,0,0.0,0.0,97,0.00,,---,0.11,VWS V14.01,2013-09-13 03:27:00,
2013-09-12 23:28:00,72.1,71.2,29.83,North,0,0.0,0.0,97,0.00,,---,0.11,VWS V14.01,2013-09-13 03:28:00,
2013-09-12 23:30:00,72.1,71.2,29.83,North,0,0.0,0.0,97,0.00,,---,0.11,VWS V14.01,2013-09-13 03:30:00,
2013-09-12 23:31:00,72.1,71.2,29.83,North,0,0.0,0.0,97,0.00,,---,0.11,VWS V14.01,2013-09-13 03:31:00,
2013-09-12 23:33:00,72.1,71.2,29.83,North,0,0.0,0.0,97,0.00,,---,0.11,VWS V14.01,2013-09-13 03:33:00,
2013-09-12 23:36:00,72.1,71.2,29.83,North,0,0.0,0.0,97,0.00,,---,0.11,VWS V14.01,2013-09-13 03:36:00,
2013-09-12 23:37:00,72.0,71.1,29.83,North,0,0.0,0.0,97,0.00,,---,0.11,VWS V14.01,2013-09-13 03:37:00,
2013-09-12 23:38:00,72.0,71.1,29.83,North,0,0.0,0.0,97,0.00,,---,0.11,VWS V14.01,2013-09-13 03:38:00,
2013-09-12 23:40:00,72.0,71.1,29.83,North,0,0.0,0.0,97,0.00,,---,0.11,VWS V14.01,2013-09-13 03:40:00,
2013-09-12 23:41:00,72.0,71.1,29.83,North,0,0.0,0.0,97,0.00,,---,0.11,VWS V14.01,2013-09-13 03:41:00,
2013-09-12 23:42:00,71.8,70.9,29.83,North,0,0.0,0.0,97,0.00,,---,0.11,VWS V14.01,2013-09-13 03:42:00,
2013-09-12 23:44:00,71.8,70.9,29.83,North,0,0.0,0.0,97,0.00,,---,0.11,VWS V14.01,2013-09-13 03:44:00,
2013-09-12 23:47:00,72.0,71.4,29.83,North,0,0.0,0.0,98,0.00,,---,0.11,VWS V14.01,2013-09-13 03:47:00,
2013-09-12 23:49:00,72.0,71.1,29.83,North,0,0.0,0.0,97,0.00,,---,0.11,VWS V14.01,2013-09-13 03:49:00,
2013-09-12 23:50:00,72.0,71.1,29.83,North,0,0.0,0.0,97,0.00,,---,0.11,VWS V14.01,2013-09-13 03:50:00,
2013-09-12 23:52:00,72.0,71.1,29.83,North,0,0.0,0.0,97,0.00,,---,0.11,VWS V14.01,2013-09-13 03:52:00,
2013-09-12 23:53:00,72.0,71.4,29.83,North,0,0.0,0.0,98,0.00,,---,0.11,VWS V14.01,2013-09-13 03:53:00,
2013-09-12 23:56:00,72.0,71.4,29.83,North,0,0.0,0.0,98,0.00,,---,0.11,VWS V14.01,2013-09-13 03:56:00,
2013-09-12 23:57:00,72.0,71.4,29.83,North,0,0.0,0.0,98,0.00,,---,0.11,VWS V14.01,2013-09-13 03:57:00,
2013-09-12 23:59:00,72.1,71.5,29.83,North,0,0.0,0.0,98,0.00,,---,0.11,VWS V14.01,2013-09-13 03:59:00,